FR2508 / EI-FTM 7700 Squawk Report (15th of February, 2019)

Aircraft B738 Reg No. EI-FTM Age 2 years old
Model 737 Jet engines 2 First flight 15-01-17
Registered 24-01-17 Rollout N/A Delivered 24-01-17
Construction No. 44763 Line No. 6240 Series 800
ADSHEX 4CAB98 Airline name Ryanair Owner N/A
Airfield based Dublin~Co Dublin~EI First tracked 2017-07-13 06:23:00

Flight history for EI-FTM

Route Flight No Date Playback
Sevilla (SVQ) - Berlin Schonefeld (SXF) FR5201 2019-03-21 10:02:00
Ibiza (IBZ) - Sevilla (SVQ) FR5231 2019-03-21 05:46:00
Sevilla (SVQ) - Ibiza (IBZ) FR5232 2019-03-20 18:54:00
Saiss (FEZ) - Sevilla (SVQ) FR1187 2019-03-20 17:56:00
Sevilla (SVQ) - Saiss (FEZ) FR1186 2019-03-20 15:14:00
Nantes Atlantique (NTE) - Sevilla (SVQ) FR6821 2019-03-20 13:22:00
Sevilla (SVQ) - Nantes Atlantique (NTE) FR6820 2019-03-20 10:52:00
Valencia (VLC) - Sevilla (SVQ) FR2207 2019-03-20 09:03:00
Sevilla (SVQ) - Valencia (VLC) FR2208 2019-03-20 07:29:00
Copenhagen Airport (CPH) - Sevilla (SVQ) FR4470 2019-03-20 05:36:00
Sevilla (SVQ) - Copenhagen Airport (CPH) FR4471 2019-03-19 17:53:00
Blagnac (TLS) - Sevilla (SVQ) FR1193 2019-03-19 13:24:00
Sevilla (SVQ) - Blagnac (TLS) FR1192 2019-03-19 08:32:00
Bari (BRI) - Sevilla (SVQ) FR1651 2019-03-19 06:02:00
Sevilla (SVQ) - Bari (BRI) FR1650 2019-03-18 18:54:00
Bristol (BRS) - Sevilla (SVQ) FR6690 2019-03-18 15:33:00
Sevilla (SVQ) - Bristol (BRS) FR6689 2019-03-18 08:42:00
Ibn Batouta (TNG) - Sevilla (SVQ) FR6853 2019-03-17 20:56:00
Valencia (VLC) - Ibn Batouta (TNG) FR6890 2019-03-17 19:43:00
Ibn Batouta (TNG) - Valencia (VLC) FR6891 2019-03-17 18:40:00
Time Lat Lon Altitude Heading Speed Vertical Rate
2019-02-15 22:21:36 GMT 41.302837 2.080566 0 309 2 0
2019-02-15 22:21:26 GMT 41.302727 2.080754 0 309 9 0
2019-02-15 22:21:18 GMT 41.302460 2.081192 0 320 11 0
2019-02-15 22:21:07 GMT 41.301971 2.081301 0 47 13 0
2019-02-15 22:20:55 GMT 41.301647 2.080521 0 67 13 0
2019-02-15 22:20:46 GMT 41.301407 2.079803 0 50 13 0
2019-02-15 22:20:34 GMT 41.300789 2.079666 0 334 16 0
2019-02-15 22:20:25 GMT 41.300194 2.080017 0 334 13 0
2019-02-15 22:20:14 GMT 41.299702 2.080349 0 323 10 0
2019-02-15 22:20:04 GMT 41.299271 2.083111 0 275 39 0
2019-02-15 22:19:53 GMT 41.299271 2.083111 0 264 45 0
2019-02-15 22:19:43 GMT 41.299633 2.085857 0 247 55 0
2019-02-15 22:19:33 GMT 41.300983 2.089844 0 247 86 0
2019-02-15 22:19:24 GMT 41.302635 2.094581 -500 247 131 -64
2019-02-15 22:19:21 GMT 41.303284 2.096558 2,800 247 139 -128
2019-02-15 22:19:12 GMT 41.305988 2.104506 -375 246 149 -832
2019-02-15 22:19:07 GMT 41.307571 2.109188 -300 246 151 -832
2019-02-15 22:19:01 GMT 41.309105 2.113682 -250 246 154 -768
2019-02-15 22:18:58 GMT 41.310036 2.116429 -200 246 156 -768
2019-02-15 22:18:53 GMT 41.311340 2.120300 -150 246 156 -768
2019-02-15 22:18:50 GMT 41.312134 2.122671 -100 245 155 -832
2019-02-15 22:18:47 GMT 41.313080 2.125366 2,800 246 155 -832
2019-02-15 22:18:43 GMT 41.314411 2.129100 0 246 153 -832
2019-02-15 22:18:40 GMT 41.315109 2.131285 50 246 153 -768
2019-02-15 22:18:33 GMT 41.317245 2.137451 125 246 153 -768
2019-02-15 22:18:30 GMT 41.318298 2.140503 175 245 153 -832
2019-02-15 22:18:22 GMT 41.320587 2.147156 300 247 153 -960
2019-02-15 22:18:19 GMT 41.321274 2.149292 325 246 154 -896
2019-02-15 22:18:12 GMT 41.323536 2.155942 475 246 159 -832
2019-02-15 22:18:09 GMT 41.324295 2.158142 475 246 160 -832
2019-02-15 22:18:01 GMT 41.326767 2.165344 600 246 164 -832
2019-02-15 22:17:57 GMT 41.328049 2.169067 650 246 165 -896
2019-02-15 22:17:51 GMT 41.330017 2.174866 750 246 170 -960
2019-02-15 22:17:47 GMT 41.331219 2.178414 800 246 172 -960
2019-02-15 22:17:41 GMT 41.333405 2.184875 950 246 174 -960
2019-02-15 22:17:38 GMT 41.334335 2.187528 950 246 174 -960
2019-02-15 22:17:31 GMT 41.336803 2.194769 1,050 246 174 -896
2019-02-15 22:17:28 GMT 41.337799 2.197632 1,100 246 174 -960
2019-02-15 22:17:20 GMT 41.340248 2.204756 1,225 246 174 -832
2019-02-15 22:17:17 GMT 41.341274 2.207690 1,250 246 175 -896
2019-02-15 22:17:10 GMT 41.343613 2.214722 1,375 247 178 -960
2019-02-15 22:17:07 GMT 41.344986 2.218872 1,425 246 179 -1024
2019-02-15 22:17:00 GMT 41.347183 2.225281 1,550 246 182 -1088
2019-02-15 22:16:57 GMT 41.348209 2.228290 1,600 246 183 -1024
2019-02-15 22:16:50 GMT 41.350819 2.235843 1,825 246 187 -1024
2019-02-15 22:16:47 GMT 41.351978 2.239151 1,775 246 187 -1024
2019-02-15 22:16:39 GMT 41.354774 2.247516 1,900 246 190 -1088
2019-02-15 22:16:36 GMT 41.355797 2.250449 1,950 246 190 -1088
2019-02-15 22:16:28 GMT 41.358543 2.258502 2,100 246 190 -1152
2019-02-15 22:16:25 GMT 41.359680 2.261841 2,150 246 191 -1088
2019-02-15 22:16:21 GMT 41.361290 2.266742 2,225 247 192 -960
2019-02-15 22:16:18 GMT 41.362129 2.269239 2,275 246 195 -1024
2019-02-15 22:16:15 GMT 41.363434 2.272984 2,325 246 196 -1024
2019-02-15 22:16:08 GMT 41.366135 2.280762 2,450 246 202 -1088
2019-02-15 22:16:04 GMT 41.367508 2.284851 2,500 246 204 -1152
2019-02-15 22:16:01 GMT 41.369110 2.289526 2,600 246 206 -1216
2019-02-15 22:15:55 GMT 41.371441 2.296455 2,725 246 209 -1536
2019-02-15 22:15:48 GMT 41.374191 2.304565 2,925 246 210 -1920
2019-02-15 22:15:44 GMT 41.375610 2.308594 3,025 246 210 -1856
2019-02-15 22:15:40 GMT 41.377350 2.313660 3,175 246 210 -2048
2019-02-15 22:15:37 GMT 41.378403 2.316711 3,250 248 210 -2176
2019-02-15 22:15:34 GMT 41.379684 2.320862 3,375 250 209 -2304
2019-02-15 22:15:30 GMT 41.380920 2.325378 3,525 252 209 -1920
2019-02-15 22:15:27 GMT 41.381821 2.329039 3,625 254 209 -1664
2019-02-15 22:15:24 GMT 41.382751 2.333374 3,700 256 210 -1216
2019-02-15 22:15:20 GMT 41.383667 2.338013 3,775 257 211 -896
2019-02-15 22:15:16 GMT 41.384491 2.342407 3,800 256 214 -448
2019-02-15 22:15:13 GMT 41.385269 2.346558 3,825 256 218 -512
2019-02-15 22:15:10 GMT 41.386196 2.351698 3,875 257 221 -1152
2019-02-15 22:15:06 GMT 41.386940 2.355737 3,950 257 223 -1152
2019-02-15 22:15:02 GMT 41.387871 2.360719 4,000 257 226 -1152
2019-02-15 22:14:58 GMT 41.388802 2.365893 4,075 256 229 -1152
2019-02-15 22:14:55 GMT 41.389572 2.369863 4,150 254 232 -1152
2019-02-15 22:14:52 GMT 41.390617 2.374324 4,200 249 234 -1280
2019-02-15 22:14:49 GMT 41.392090 2.379227 4,275 244 236 -1344
2019-02-15 22:14:45 GMT 41.393829 2.383331 4,350 238 238 -1408
2019-02-15 22:14:42 GMT 41.396160 2.387546 4,450 229 240 -1664
2019-02-15 22:14:39 GMT 41.398624 2.390932 4,550 218 242 -1984
2019-02-15 22:14:32 GMT 41.405285 2.396616 4,800 205 244 -2048
2019-02-15 22:14:28 GMT 41.408707 2.398453 4,975 192 246 -2496
2019-02-15 22:14:25 GMT 41.412415 2.399764 5,050 190 246 -2624
2019-02-15 22:14:21 GMT 41.416626 2.400513 5,225 182 245 -2944
2019-02-15 22:14:15 GMT 41.423763 2.400129 5,550 169 243 -3200
2019-02-15 22:14:11 GMT 41.435032 2.395978 6,075 161 241 -2752
2019-02-15 22:14:04 GMT 41.435032 2.395978 6,075 161 242 -2304
2019-02-15 22:14:00 GMT 41.439125 2.394125 6,175 161 244 -1344
2019-02-15 22:13:54 GMT 41.445831 2.391149 6,250 161 252 -320
2019-02-15 22:13:51 GMT 41.450500 2.389027 6,275 161 258 -448
2019-02-15 22:13:47 GMT 41.454720 2.387227 6,300 161 262 -576
2019-02-15 22:13:44 GMT 41.457916 2.385781 6,325 161 263 -640
2019-02-15 22:13:40 GMT 41.462723 2.383659 6,375 161 266 -768
2019-02-15 22:13:36 GMT 41.467197 2.381734 6,450 161 268 -1344
2019-02-15 22:13:33 GMT 41.470081 2.380456 6,500 161 269 -1600
2019-02-15 22:13:29 GMT 41.479111 2.376543 6,725 161 271 -1664
2019-02-15 22:13:23 GMT 41.482838 2.374899 6,800 161 271 -1856
2019-02-15 22:13:19 GMT 41.486755 2.373172 6,900 161 271 -1984
2019-02-15 22:13:14 GMT 41.493034 2.370428 7,100 161 271 -2112
2019-02-15 22:13:09 GMT 41.499298 2.367679 7,275 161 270 -2112
2019-02-15 22:13:06 GMT 41.504208 2.365510 7,425 161 270 -2112
2019-02-15 22:13:01 GMT 41.508270 2.363746 7,550 161 269 -2112
2019-02-15 22:12:58 GMT 41.511978 2.362124 7,650 162 269 -2048
2019-02-15 22:12:55 GMT 41.515640 2.360562 7,825 162 269 -2048
2019-02-15 22:12:51 GMT 41.520218 2.358627 7,925 162 269 -2048
2019-02-15 22:12:48 GMT 41.524223 2.356951 17,350 162 269 -1984
2019-02-15 22:12:44 GMT 41.528973 2.354907 17,350 162 269 -1856
2019-02-15 22:12:41 GMT 41.532604 2.353374 8,200 163 270 -1664
2019-02-15 22:12:38 GMT 41.536373 2.351905 17,350 164 271 -1536
2019-02-15 22:12:34 GMT 41.545029 2.349389 17,350 169 273 -1664
2019-02-15 22:12:31 GMT 41.545029 2.349389 8,500 175 273 -2112
2019-02-15 22:12:25 GMT 41.552765 2.349077 17,350 185 274 -2048
2019-02-15 22:12:20 GMT 41.558395 2.349639 8,875 186 275 -1856
2019-02-15 22:12:17 GMT 41.562286 2.350138 17,350 186 275 -1728
2019-02-15 22:12:14 GMT 41.565994 2.350637 17,350 187 276 -1600
2019-02-15 22:12:10 GMT 41.571167 2.351386 9,150 187 277 -1536
2019-02-15 22:12:07 GMT 41.575424 2.352073 17,350 187 278 -1472
2019-02-15 22:12:04 GMT 41.579224 2.352635 17,350 187 279 -1408
2019-02-15 22:11:59 GMT 41.585632 2.353571 9,425 187 282 -1472
2019-02-15 22:11:56 GMT 41.589539 2.354140 17,350 187 283 -1600
2019-02-15 22:11:53 GMT 41.592957 2.354632 17,350 187 285 -1472
2019-02-15 22:11:49 GMT 41.597855 2.355257 9,650 186 287 -1280
2019-02-15 22:11:44 GMT 41.605637 2.356380 17,350 186 290 -1024
2019-02-15 22:11:39 GMT 41.612228 2.357254 9,850 187 294 -1088
2019-02-15 22:11:33 GMT 41.620029 2.358356 17,350 186 299 -1216
2019-02-15 22:11:29 GMT 41.629524 2.359633 17,350 186 299 -1216
2019-02-15 22:11:26 GMT 41.629524 2.359633 10,100 186 306 -1280
2019-02-15 22:11:22 GMT 41.634842 2.360375 17,350 186 306 -1280
2019-02-15 22:11:17 GMT 41.643219 2.361499 10,300 186 311 -1280
2019-02-15 22:11:14 GMT 41.650520 2.362444 17,350 186 313 -1216
2019-02-15 22:11:08 GMT 41.654942 2.363019 10,450 186 318 -1152
2019-02-15 22:11:04 GMT 41.661411 2.363913 10,575 186 321 -1216
2019-02-15 22:11:01 GMT 41.665741 2.364495 10,675 186 324 -1280
2019-02-15 22:10:57 GMT 41.670769 2.365126 10,675 186 326 -1344
2019-02-15 22:10:54 GMT 41.676495 2.365957 10,750 186 329 -1344
2019-02-15 22:10:50 GMT 41.682220 2.366742 17,350 186 333 -1344
2019-02-15 22:10:42 GMT 41.694534 2.368428 11,000 186 340 -1280
2019-02-15 22:10:38 GMT 41.700005 2.369151 11,100 186 344 -1280
2019-02-15 22:10:32 GMT 41.711037 2.370620 11,200 186 351 -1152
2019-02-15 22:10:28 GMT 41.717285 2.371486 11,300 186 357 -1152
2019-02-15 22:10:21 GMT 41.728912 2.373047 11,425 186 365 -1024
2019-02-15 22:10:17 GMT 41.735523 2.373877 11,750 186 381 -1792
2019-02-15 22:10:12 GMT 41.745621 2.375294 11,600 186 381 -1536
2019-02-15 22:10:06 GMT 41.754868 2.376543 12,000 186 385 -2624
2019-02-15 22:10:01 GMT 41.763222 2.377710 17,350 186 388 -3456
2019-02-15 22:09:54 GMT 41.775101 2.379352 12,425 186 389 -3712
2019-02-15 22:09:51 GMT 41.781693 2.380225 12,850 186 390 -3712
2019-02-15 22:09:43 GMT 41.794785 2.381973 13,075 186 393 -3584
2019-02-15 22:09:39 GMT 41.803207 2.383159 13,275 186 394 -3456
2019-02-15 22:09:30 GMT 41.820202 2.385438 13,925 186 398 -3904
2019-02-15 22:09:24 GMT 41.839005 2.387966 17,350 186 399 -3840
2019-02-15 22:09:19 GMT 41.839005 2.387966 14,600 186 400 -4096
2019-02-15 22:09:16 GMT 41.844971 2.388760 17,350 186 401 -4032
2019-02-15 22:09:09 GMT 41.857498 2.390525 15,250 186 402 -3712
2019-02-15 22:09:06 GMT 41.864044 2.391399 15,475 186 403 -3712
2019-02-15 22:08:59 GMT 41.876625 2.393231 16,075 187 405 -3904
2019-02-15 22:08:53 GMT 41.889008 2.394956 16,350 187 407 -3840
2019-02-15 22:08:49 GMT 41.895386 2.395914 16,625 187 410 -3328
2019-02-15 22:08:38 GMT 41.915634 2.398852 17,175 187 414 -3776
2019-02-15 22:08:29 GMT 41.939236 2.402173 17,825 187 417 -3584
2019-02-15 22:08:21 GMT 41.948734 2.403770 18,125 189 420 -3520
2019-02-15 22:08:17 GMT 41.958572 2.405819 19,000 194 427 -3712
2019-02-15 22:08:12 GMT 41.967957 2.408191 18,725 192 424 -3712
2019-02-15 22:08:07 GMT 41.981598 2.412373 19,275 195 429 -3840
2019-02-15 22:08:01 GMT 41.988026 2.414629 19,400 196 431 -3712
2019-02-15 22:07:57 GMT 42.000126 2.419036 19,725 196 433 -2944
2019-02-15 22:07:50 GMT 42.007645 2.421736 19,925 196 433 -2944
2019-02-15 22:07:44 GMT 42.020702 2.426509 20,225 196 436 -3008
2019-02-15 22:07:41 GMT 42.029037 2.429511 20,450 196 437 -2944
2019-02-15 22:07:35 GMT 42.036903 2.432450 20,700 196 439 -2880
2019-02-15 22:07:32 GMT 42.044586 2.435260 20,700 196 439 -2880
2019-02-15 22:07:29 GMT 42.048523 2.436718 20,950 196 440 -2816
2019-02-15 22:07:26 GMT 42.056030 2.439464 21,200 196 443 -2816
2019-02-15 22:07:23 GMT 42.061901 2.441648 21,250 196 445 -2816
2019-02-15 22:07:19 GMT 42.069305 2.444396 21,425 196 445 -2816
2019-02-15 22:07:15 GMT 42.083363 2.449632 21,750 196 448 -2880
2019-02-15 22:07:09 GMT 42.089367 2.451867 21,925 196 449 -2880
2019-02-15 22:07:03 GMT 42.101761 2.456381 22,200 196 450 -2880
2019-02-15 22:06:59 GMT 42.110367 2.459564 22,425 196 451 -2880
2019-02-15 22:06:55 GMT 42.118332 2.462498 22,675 196 452 -2944
2019-02-15 22:06:52 GMT 42.123909 2.464578 22,675 196 452 -2944
2019-02-15 22:06:48 GMT 42.131310 2.467261 22,925 196 454 -2944
2019-02-15 22:06:44 GMT 42.139023 2.470114 23,275 196 456 -2944
2019-02-15 22:06:41 GMT 42.145649 2.472499 23,275 196 456 -2944
2019-02-15 22:06:38 GMT 42.152618 2.475107 23,450 196 457 -3008
2019-02-15 22:06:33 GMT 42.161011 2.478247 23,700 196 458 -3136
2019-02-15 22:06:30 GMT 42.168365 2.480930 23,850 196 458 -3264
2019-02-15 22:06:24 GMT 42.183544 2.486615 24,300 196 461 -2368
2019-02-15 22:06:20 GMT 42.189407 2.488787 24,325 196 462 -1664
2019-02-15 22:06:17 GMT 42.195740 2.491087 24,400 196 464 -1280
2019-02-15 22:06:13 GMT 42.209148 2.496068 24,525 196 465 -1024
2019-02-15 22:06:07 GMT 42.218262 2.499390 24,625 196 466 -1728
2019-02-15 22:06:01 GMT 42.227161 2.502711 24,750 196 468 -2432
2019-02-15 22:05:58 GMT 42.234283 2.505320 25,025 196 469 -2944
2019-02-15 22:05:55 GMT 42.239544 2.507310 25,025 196 470 -2944
2019-02-15 22:05:51 GMT 42.257282 2.513889 25,325 196 473 -3008
2019-02-15 22:05:48 GMT 42.263893 2.516380 25,700 196 474 -3584
2019-02-15 22:05:41 GMT 42.269714 2.518553 25,700 196 474 -3584
2019-02-15 22:05:37 GMT 42.278278 2.521682 26,050 196 474 -4032
2019-02-15 22:05:34 GMT 42.284702 2.524109 26,450 196 473 -4096
2019-02-15 22:05:31 GMT 42.291183 2.526543 26,450 196 473 -4096
2019-02-15 22:05:27 GMT 42.300339 2.529977 26,750 196 472 -4160
2019-02-15 22:05:22 GMT 42.311142 2.534009 27,150 196 471 -3968
2019-02-15 22:05:19 GMT 42.316681 2.536117 27,275 196 471 -3840
2019-02-15 22:05:14 GMT 42.328693 2.540588 27,600 196 472 -3264
2019-02-15 22:05:11 GMT 42.332977 2.542185 27,750 196 472 -2560
2019-02-15 22:05:08 GMT 42.339432 2.544583 27,850 196 472 -2112
2019-02-15 22:05:04 GMT 42.348450 2.547954 27,975 196 473 -1536
2019-02-15 22:05:01 GMT 42.354858 2.550326 28,075 196 473 -1280
2019-02-15 22:04:58 GMT 42.361187 2.552724 28,125 196 473 -1024
2019-02-15 22:04:54 GMT 42.371708 2.556621 28,200 196 473 -960
2019-02-15 22:04:51 GMT 42.376129 2.558281 28,250 196 473 -960
2019-02-15 22:04:48 GMT 42.382648 2.560709 28,275 196 473 -960
2019-02-15 22:04:43 GMT 42.394424 2.565116 28,375 196 472 -960
2019-02-15 22:04:38 GMT 42.404251 2.568803 28,450 196 472 -960
2019-02-15 22:04:32 GMT 42.415745 2.573100 28,525 196 473 -960
2019-02-15 22:04:29 GMT 42.420727 2.575016 28,575 196 473 -960
2019-02-15 22:04:26 GMT 42.427338 2.577508 28,625 196 472 -960
2019-02-15 22:04:22 GMT 42.436974 2.581084 28,700 196 472 -1024
2019-02-15 22:04:19 GMT 42.443306 2.583512 28,750 196 472 -1024
2019-02-15 22:04:14 GMT 42.455643 2.588111 28,850 196 472 -1024
2019-02-15 22:04:10 GMT 42.463089 2.590921 28,925 196 472 -1024
2019-02-15 22:04:07 GMT 42.468628 2.592965 28,950 196 472 -1024
2019-02-15 22:04:01 GMT 42.480545 2.597500 29,050 196 471 -1024
2019-02-15 22:03:57 GMT 42.491440 2.601588 29,125 196 471 -1024
2019-02-15 22:03:49 GMT 42.506569 2.607337 29,250 196 471 -960
2019-02-15 22:03:46 GMT 42.513039 2.609764 29,300 196 471 -960
2019-02-15 22:03:38 GMT 42.529751 2.616087 29,425 196 471 -960
2019-02-15 22:03:33 GMT 42.540691 2.620303 29,500 196 471 -960
2019-02-15 22:03:30 GMT 42.546185 2.622347 29,550 196 471 -960
2019-02-15 22:03:27 GMT 42.551331 2.624297 29,600 196 471 -960
2019-02-15 22:03:20 GMT 42.566986 2.630227 29,725 196 471 -1024
2019-02-15 22:03:17 GMT 42.573093 2.632567 29,775 196 471 -1024
2019-02-15 22:03:09 GMT 42.590408 2.639082 29,900 196 471 -1024
2019-02-15 22:03:06 GMT 42.595367 2.640901 29,950 196 471 -1024
2019-02-15 22:03:00 GMT 42.609169 2.646108 30,075 196 471 -1024
2019-02-15 22:02:56 GMT 42.616653 2.648891 30,125 195 471 -960
2019-02-15 22:02:48 GMT 42.633820 2.654384 30,250 193 470 -960
2019-02-15 22:02:45 GMT 42.640175 2.656264 30,300 193 469 -960
2019-02-15 22:02:38 GMT 42.660751 2.662332 30,425 193 469 -960
2019-02-15 22:02:27 GMT 42.684952 2.669490 30,625 193 469 -960
2019-02-15 22:02:18 GMT 42.699234 2.673735 30,750 193 468 -960
2019-02-15 22:02:14 GMT 42.706284 2.675795 30,850 193 468 -960
2019-02-15 22:02:07 GMT 42.721268 2.680217 30,925 193 468 -960
2019-02-15 22:02:04 GMT 42.726341 2.681750 30,925 193 468 -960
2019-02-15 22:01:59 GMT 42.739014 2.685471 31,100 193 467 -960
2019-02-15 22:01:54 GMT 42.748966 2.688393 31,100 193 467 -960
2019-02-15 22:01:47 GMT 42.763870 2.692836 31,225 193 467 -960
2019-02-15 22:01:44 GMT 42.770241 2.694716 31,275 193 467 -960
2019-02-15 22:01:39 GMT 42.782436 2.698293 31,350 193 467 -960
2019-02-15 22:01:36 GMT 42.788395 2.700082 31,400 193 467 -960
2019-02-15 22:01:33 GMT 42.791794 2.701040 31,400 193 467 -960
2019-02-15 22:01:26 GMT 42.808182 2.705894 31,575 193 468 -960
2019-02-15 22:01:23 GMT 42.814041 2.707619 31,575 193 468 -960
2019-02-15 22:01:18 GMT 42.825359 2.710942 31,675 193 468 -960
2019-02-15 22:01:13 GMT 42.835602 2.713950 31,750 193 469 -960
2019-02-15 22:01:08 GMT 42.845993 2.717008 31,825 193 469 -960
2019-02-15 22:01:04 GMT 42.855240 2.719755 31,900 193 469 -960
2019-02-15 22:00:57 GMT 42.869862 2.724086 32,025 193 469 -1024
2019-02-15 22:00:52 GMT 42.879360 2.726898 32,075 193 468 -1024
2019-02-15 22:00:47 GMT 42.888905 2.729710 32,175 193 469 -960
2019-02-15 22:00:42 GMT 42.901245 2.733424 32,250 193 469 -960
2019-02-15 22:00:37 GMT 42.911819 2.736554 32,350 193 469 -960
2019-02-15 22:00:34 GMT 42.919209 2.738800 32,450 193 468 -960
2019-02-15 22:00:31 GMT 42.924774 2.740450 32,450 193 467 -960
2019-02-15 22:00:27 GMT 42.935081 2.743508 32,525 193 468 -960
2019-02-15 22:00:23 GMT 42.941483 2.745432 32,575 193 468 -960
2019-02-15 22:00:20 GMT 42.946793 2.747029 32,600 193 468 -960
2019-02-15 22:00:13 GMT 42.962547 2.751748 32,775 193 469 -1024
2019-02-15 22:00:10 GMT 42.968880 2.753645 32,775 193 469 -1024
2019-02-15 22:00:05 GMT 42.978104 2.756419 32,850 193 469 -960
2019-02-15 22:00:02 GMT 42.992065 2.760634 32,950 193 469 -960
2019-02-15 21:59:59 GMT 42.992065 2.760634 32,950 193 469 -960
2019-02-15 21:59:56 GMT 43.001083 2.763317 33,025 193 469 -960
2019-02-15 21:59:53 GMT 43.005386 2.764658 33,075 193 469 -960
2019-02-15 21:59:50 GMT 43.010788 2.766255 33,075 193 469 -960
2019-02-15 21:59:46 GMT 43.021866 2.769577 33,175 193 470 -960
2019-02-15 21:59:41 GMT 43.029144 2.771748 33,250 193 471 -960
2019-02-15 21:59:36 GMT 43.043736 2.776075 33,350 191 470 -960
2019-02-15 21:59:31 GMT 43.051163 2.778072 33,425 190 470 -960
2019-02-15 21:59:27 GMT 43.059219 2.779988 33,450 190 470 -960
2019-02-15 21:59:22 GMT 43.072540 2.782543 33,575 187 469 -960
2019-02-15 21:59:19 GMT 43.077671 2.783269 33,600 186 470 -960
2019-02-15 21:59:15 GMT 43.086472 2.784380 33,675 185 469 -960
2019-02-15 21:59:10 GMT 43.095501 2.785296 33,725 185 469 -960
2019-02-15 21:59:06 GMT 43.105591 2.786376 33,800 185 469 -960
2019-02-15 21:59:01 GMT 43.117752 2.787650 33,925 185 468 -960
2019-02-15 21:58:58 GMT 43.123123 2.788164 33,950 185 468 -960
2019-02-15 21:58:55 GMT 43.128551 2.788762 33,975 185 468 -960
2019-02-15 21:58:51 GMT 43.138611 2.789808 34,075 185 467 -960
2019-02-15 21:58:45 GMT 43.150852 2.791116 34,200 185 466 -960
2019-02-15 21:58:40 GMT 43.162994 2.792380 34,225 185 466 -960
2019-02-15 21:58:33 GMT 43.175446 2.793721 34,350 185 466 -960
2019-02-15 21:58:30 GMT 43.184601 2.794647 34,400 185 466 -960
2019-02-15 21:58:27 GMT 43.188187 2.795040 34,425 185 466 -960
2019-02-15 21:58:23 GMT 43.196960 2.795957 34,475 185 466 -960
2019-02-15 21:58:19 GMT 43.212387 2.797553 34,575 185 466 -960
2019-02-15 21:58:13 GMT 43.219070 2.798256 34,650 185 466 -960
2019-02-15 21:58:10 GMT 43.226269 2.799029 34,750 185 466 -960
2019-02-15 21:58:07 GMT 43.232574 2.799661 34,750 185 466 -960
2019-02-15 21:58:01 GMT 43.245209 2.801067 34,825 185 467 -960
2019-02-15 21:57:56 GMT 43.256851 2.802298 34,975 185 467 -960
2019-02-15 21:57:49 GMT 43.271759 2.803877 35,075 185 466 -960
2019-02-15 21:57:46 GMT 43.277149 2.804456 35,075 185 466 -960
2019-02-15 21:57:39 GMT 43.292450 2.806113 35,200 185 465 -960
2019-02-15 21:57:36 GMT 43.301125 2.807072 35,250 185 465 -896
2019-02-15 21:57:30 GMT 43.310760 2.808184 35,325 185 464 -896
2019-02-15 21:57:25 GMT 43.322536 2.809492 35,950 178 455 -832
2019-02-15 21:57:21 GMT 43.331360 2.810456 35,475 185 463 -896
2019-02-15 21:57:17 GMT 43.340149 2.811478 35,550 185 463 -896
2019-02-15 21:57:10 GMT 43.354843 2.813023 35,650 184 462 -896
2019-02-15 21:57:05 GMT 43.384094 2.813714 35,950 178 455 -832
2019-02-15 21:56:56 GMT 43.384094 2.813714 35,825 179 463 -832
2019-02-15 21:56:52 GMT 43.391899 2.813546 35,950 178 455 -832
2019-02-15 21:56:46 GMT 43.406250 2.813266 35,975 179 460 -896
2019-02-15 21:56:43 GMT 43.411469 2.813139 36,025 179 460 -896
2019-02-15 21:56:36 GMT 43.426487 2.812827 36,125 179 457 -896
2019-02-15 21:56:33 GMT 43.432983 2.812628 36,175 179 457 -896
2019-02-15 21:56:25 GMT 43.449673 2.812238 36,275 178 454 -832
2019-02-15 21:56:22 GMT 43.457748 2.812053 36,325 178 450 -832
2019-02-15 21:56:16 GMT 43.469734 2.811781 36,425 178 450 -832
2019-02-15 21:56:13 GMT 43.476112 2.811650 36,450 178 449 -832
2019-02-15 21:56:05 GMT 43.492638 2.811257 36,575 178 446 -960
2019-02-15 21:56:02 GMT 43.497482 2.811095 36,600 178 446 -960
2019-02-15 21:55:55 GMT 43.515564 2.810712 36,750 179 444 -1088
2019-02-15 21:55:52 GMT 43.518661 2.810669 36,775 179 444 -1088
2019-02-15 21:55:46 GMT 43.531231 2.810407 36,875 179 444 -1024
2019-02-15 21:55:42 GMT 43.540146 2.810201 36,950 179 444 -768
2019-02-15 21:55:34 GMT 43.556305 2.809817 37,000 179 444 0
2019-02-15 21:55:31 GMT 43.561630 2.809753 37,000 179 444 0
2019-02-15 21:55:23 GMT 43.577728 2.809434 37,000 179 444 0
2019-02-15 21:55:20 GMT 43.583275 2.809296 37,000 179 444 0
2019-02-15 21:55:13 GMT 43.599152 2.808969 37,000 179 444 0
2019-02-15 21:55:10 GMT 43.604095 2.808859 37,000 179 444 0
2019-02-15 21:55:03 GMT 43.619980 2.808604 37,000 179 444 0
2019-02-15 21:55:00 GMT 43.625107 2.808540 37,000 179 444 0
2019-02-15 21:54:52 GMT 43.640862 2.808249 37,000 179 444 0
2019-02-15 21:54:49 GMT 43.647308 2.808093 37,000 179 444 0
2019-02-15 21:54:42 GMT 43.662415 2.807792 37,000 179 443 0
2019-02-15 21:54:39 GMT 43.668327 2.807726 37,000 179 443 0
2019-02-15 21:54:32 GMT 43.683270 2.807399 37,000 179 443 0
2019-02-15 21:54:29 GMT 43.688690 2.807262 37,000 179 443 0
2019-02-15 21:54:21 GMT 43.705708 2.806876 37,000 179 443 0
2019-02-15 21:54:18 GMT 43.710480 2.806815 37,000 179 443 0
2019-02-15 21:54:09 GMT 43.732544 2.806304 37,000 179 442 0
2019-02-15 21:54:01 GMT 43.746861 2.806026 37,000 179 442 0
2019-02-15 21:53:58 GMT 43.752502 2.805921 37,000 179 443 0
2019-02-15 21:53:48 GMT 43.773209 2.805503 37,000 179 442 0
2019-02-15 21:53:40 GMT 43.789352 2.805154 37,000 179 442 0
2019-02-15 21:53:37 GMT 43.794205 2.805027 37,000 179 442 0
2019-02-15 21:53:33 GMT 43.803909 2.804835 37,000 179 442 0
2019-02-15 21:53:27 GMT 43.816364 2.804522 37,000 179 442 0
2019-02-15 21:53:24 GMT 43.821251 2.804456 37,000 179 442 0
2019-02-15 21:53:19 GMT 43.832611 2.804195 37,000 179 442 0
2019-02-15 21:53:16 GMT 43.838425 2.804069 37,000 179 442 0
2019-02-15 21:53:06 GMT 43.859142 2.803672 37,000 179 442 0
2019-02-15 21:52:59 GMT 43.874542 2.803366 37,000 179 442 0
2019-02-15 21:52:55 GMT 43.881165 2.803214 37,000 179 442 0
2019-02-15 21:52:48 GMT 43.895454 2.802952 37,000 179 442 0
2019-02-15 21:52:45 GMT 43.901596 2.802855 37,000 179 442 0
2019-02-15 21:52:41 GMT 43.909607 2.802691 37,000 179 442 0
2019-02-15 21:52:37 GMT 43.917526 2.802536 37,000 179 442 0
2019-02-15 21:52:34 GMT 43.924831 2.802429 37,000 179 442 0
2019-02-15 21:52:31 GMT 43.929020 2.802364 37,000 179 442 0
2019-02-15 21:52:25 GMT 43.945126 2.802037 37,000 179 442 0
2019-02-15 21:52:22 GMT 43.949066 2.801961 37,000 179 442 0
2019-02-15 21:52:14 GMT 43.965004 2.801644 37,000 179 442 0
2019-02-15 21:52:11 GMT 43.971008 2.801514 37,000 179 442 0
2019-02-15 21:52:06 GMT 43.980740 2.801317 37,000 179 442 0
2019-02-15 21:52:03 GMT 43.989536 2.801187 37,000 179 442 0
2019-02-15 21:51:59 GMT 43.995071 2.801067 37,000 179 442 0
2019-02-15 21:51:53 GMT 44.008438 2.800794 37,000 179 442 0
2019-02-15 21:51:50 GMT 44.014256 2.800664 37,000 179 442 0
2019-02-15 21:51:43 GMT 44.029495 2.800364 37,000 179 442 0
2019-02-15 21:51:39 GMT 44.036636 2.800236 37,000 179 442 0
2019-02-15 21:51:32 GMT 44.050644 2.799981 37,000 179 442 0
2019-02-15 21:51:28 GMT 44.059319 2.799748 37,000 179 442 0
2019-02-15 21:51:24 GMT 44.067184 2.799617 37,000 179 442 0
2019-02-15 21:51:21 GMT 44.072205 2.799534 37,000 179 442 0
2019-02-15 21:51:18 GMT 44.078732 2.799356 37,000 179 442 0
2019-02-15 21:51:11 GMT 44.093903 2.799086 37,000 179 442 0
2019-02-15 21:51:08 GMT 44.099808 2.798959 37,000 179 441 0
2019-02-15 21:51:01 GMT 44.114319 2.798639 37,000 179 441 0
2019-02-15 21:50:58 GMT 44.120499 2.798512 37,000 179 441 0
2019-02-15 21:50:53 GMT 44.130264 2.798309 37,000 179 441 0
2019-02-15 21:50:50 GMT 44.136932 2.798128 37,000 179 440 0
2019-02-15 21:50:46 GMT 44.143906 2.797982 37,000 179 440 0
2019-02-15 21:50:40 GMT 44.156242 2.797721 37,000 179 440 0
2019-02-15 21:50:35 GMT 44.166870 2.797490 37,000 179 439 0
2019-02-15 21:50:30 GMT 44.177422 2.797328 37,000 179 439 0
2019-02-15 21:50:22 GMT 44.193855 2.797001 37,000 179 439 0
2019-02-15 21:50:19 GMT 44.198822 2.796871 37,000 179 439 0
2019-02-15 21:50:15 GMT 44.208069 2.796740 37,000 179 439 0
2019-02-15 21:50:09 GMT 44.219227 2.796489 37,000 179 439 0
2019-02-15 21:50:04 GMT 44.229839 2.796288 37,000 179 439 0
2019-02-15 21:49:59 GMT 44.239941 2.796087 37,000 179 439 0
2019-02-15 21:49:52 GMT 44.253616 2.795759 37,000 179 439 0
2019-02-15 21:49:49 GMT 44.260757 2.795628 37,000 179 439 0
2019-02-15 21:49:43 GMT 44.272343 2.795351 37,000 179 439 0
2019-02-15 21:49:38 GMT 44.281448 2.795105 37,000 179 439 0
2019-02-15 21:49:32 GMT 44.294224 2.794815 37,000 179 439 0
2019-02-15 21:49:27 GMT 44.304840 2.794582 37,000 179 439 0
2019-02-15 21:49:22 GMT 44.315323 2.794386 37,000 179 438 0
2019-02-15 21:49:18 GMT 44.323410 2.794212 37,000 179 438 0
2019-02-15 21:49:08 GMT 44.343384 2.793732 37,000 179 438 0
2019-02-15 21:48:57 GMT 44.366180 2.793274 37,000 179 438 0
2019-02-15 21:48:50 GMT 44.379410 2.792947 37,000 179 437 0
2019-02-15 21:48:47 GMT 44.386440 2.792805 37,000 179 437 0
2019-02-15 21:48:39 GMT 44.402527 2.792489 37,000 179 437 0
2019-02-15 21:48:36 GMT 44.407856 2.792403 37,000 179 437 0
2019-02-15 21:48:29 GMT 44.422668 2.792097 37,000 179 436 0
2019-02-15 21:48:25 GMT 44.429077 2.791966 37,000 179 436 0
2019-02-15 21:48:18 GMT 44.443562 2.791666 37,000 179 436 0
2019-02-15 21:48:15 GMT 44.450043 2.791574 37,000 179 436 0
2019-02-15 21:48:08 GMT 44.464462 2.791312 37,000 179 435 0
2019-02-15 21:48:05 GMT 44.470734 2.791181 37,000 179 435 0
2019-02-15 21:47:54 GMT 44.491791 2.790789 37,000 179 435 0
2019-02-15 21:47:48 GMT 44.505203 2.790527 37,000 179 435 0
2019-02-15 21:47:43 GMT 44.513626 2.790331 37,000 179 435 0
2019-02-15 21:47:39 GMT 44.525398 2.790058 37,000 179 435 0
2019-02-15 21:47:35 GMT 44.531296 2.789939 37,000 179 435 0
2019-02-15 21:47:31 GMT 44.538574 2.789790 37,000 179 435 0
2019-02-15 21:47:23 GMT 44.553749 2.789456 37,000 179 435 0
2019-02-15 21:47:13 GMT 44.574234 2.789054 37,000 179 436 0
2019-02-15 21:47:04 GMT 44.593597 2.788631 37,000 179 436 0
2019-02-15 21:46:58 GMT 44.606094 2.788369 37,000 179 436 0
2019-02-15 21:46:51 GMT 44.619808 2.788049 37,000 179 436 0
2019-02-15 21:46:43 GMT 44.651836 2.787379 37,000 179 436 0
2019-02-15 21:46:32 GMT 44.656860 2.787258 37,000 179 436 0
2019-02-15 21:46:23 GMT 44.674850 2.786931 37,000 179 436 0
2019-02-15 21:46:20 GMT 44.683025 2.786709 37,000 179 436 0
2019-02-15 21:46:12 GMT 44.697647 2.786473 37,000 179 437 0
2019-02-15 21:46:09 GMT 44.703835 2.786307 37,000 179 437 0
2019-02-15 21:46:06 GMT 44.711143 2.786173 37,000 179 437 0
2019-02-15 21:46:02 GMT 44.718475 2.786015 37,000 179 438 0
2019-02-15 21:45:59 GMT 44.726551 2.785838 37,000 179 437 0
2019-02-15 21:45:51 GMT 44.740334 2.785570 37,000 179 437 0
2019-02-15 21:45:48 GMT 44.746288 2.785436 37,000 179 437 0
2019-02-15 21:45:41 GMT 44.759857 2.785165 37,000 179 437 0
2019-02-15 21:45:30 GMT 44.782646 2.784699 37,000 179 438 0
2019-02-15 21:45:18 GMT 44.808014 2.784119 37,000 179 438 0
2019-02-15 21:45:10 GMT 44.823441 2.783792 37,000 179 438 0
2019-02-15 21:45:05 GMT 44.832600 2.783627 37,000 179 438 0
2019-02-15 21:45:00 GMT 44.843910 2.783359 37,000 179 438 0
2019-02-15 21:44:56 GMT 44.852009 2.783158 37,000 179 438 0
2019-02-15 21:44:49 GMT 44.866394 2.782824 37,000 179 438 0
2019-02-15 21:44:44 GMT 44.874893 2.782615 37,000 179 438 0
2019-02-15 21:44:39 GMT 44.885651 2.782353 37,000 179 438 0
2019-02-15 21:44:33 GMT 44.896889 2.782154 37,000 179 439 0
2019-02-15 21:44:27 GMT 44.910759 2.781819 37,000 179 439 0
2019-02-15 21:44:24 GMT 44.915955 2.781699 37,000 179 439 0
2019-02-15 21:44:18 GMT 44.928028 2.781417 37,000 179 439 0
2019-02-15 21:44:15 GMT 44.933212 2.781307 37,000 179 439 0
2019-02-15 21:44:06 GMT 44.952530 2.780849 37,000 179 439 0
2019-02-15 21:43:55 GMT 44.974770 2.780412 37,000 179 440 0
2019-02-15 21:43:45 GMT 44.995529 2.779943 37,000 179 440 0
2019-02-15 21:43:40 GMT 45.005772 2.779742 37,000 179 440 0
2019-02-15 21:43:37 GMT 45.011917 2.779608 37,000 179 449 0
2019-02-15 21:43:33 GMT 45.020325 2.779410 37,000 179 440 0
2019-02-15 21:43:30 GMT 45.026257 2.779273 37,000 179 440 0
2019-02-15 21:43:24 GMT 45.038265 2.779072 37,000 179 440 0
2019-02-15 21:43:20 GMT 45.046051 2.778887 37,000 179 440 0
2019-02-15 21:43:15 GMT 45.055252 2.778691 37,000 179 440 0
2019-02-15 21:43:10 GMT 45.066833 2.778429 37,000 179 440 0
2019-02-15 21:43:05 GMT 45.078999 2.778201 37,000 179 440 0
2019-02-15 21:43:02 GMT 45.082031 2.778168 37,000 179 440 0
2019-02-15 21:42:54 GMT 45.097824 2.777841 37,000 179 441 0
2019-02-15 21:42:51 GMT 45.103764 2.777665 37,000 179 441 0
2019-02-15 21:42:44 GMT 45.119202 2.777383 37,000 179 442 0
2019-02-15 21:42:41 GMT 45.124924 2.777252 37,000 179 442 0
2019-02-15 21:42:38 GMT 45.132294 2.777121 37,000 179 444 -64
2019-02-15 21:42:34 GMT 45.141335 2.776928 37,000 179 445 0
2019-02-15 21:42:27 GMT 45.154507 2.776660 36,975 179 448 0
2019-02-15 21:42:23 GMT 45.163071 2.776459 37,000 179 449 0
2019-02-15 21:42:20 GMT 45.168869 2.776337 37,000 179 450 0
2019-02-15 21:42:16 GMT 45.176991 2.776192 37,000 179 449 0
2019-02-15 21:42:12 GMT 45.184486 2.776058 37,000 179 449 0
2019-02-15 21:42:06 GMT 45.197895 2.775723 37,000 179 449 0
2019-02-15 21:42:03 GMT 45.205856 2.775552 37,000 179 449 0
2019-02-15 21:41:58 GMT 45.213364 2.775421 37,000 179 449 0
2019-02-15 21:41:55 GMT 45.220505 2.775225 37,000 179 449 0
2019-02-15 21:41:52 GMT 45.226990 2.775120 37,000 179 449 0
2019-02-15 21:41:47 GMT 45.236813 2.774919 37,000 179 449 0
2019-02-15 21:41:44 GMT 45.242798 2.774767 37,000 179 449 0
2019-02-15 21:41:41 GMT 45.249023 2.774636 37,000 179 449 0
2019-02-15 21:41:37 GMT 45.257107 2.774450 37,000 179 449 0
2019-02-15 21:41:34 GMT 45.264416 2.774249 37,000 179 449 0
2019-02-15 21:41:30 GMT 45.272232 2.774113 37,000 179 450 0
2019-02-15 21:41:26 GMT 45.280884 2.773917 37,000 179 450 0
2019-02-15 21:41:23 GMT 45.286530 2.773780 37,000 179 450 0
2019-02-15 21:41:20 GMT 45.293015 2.773655 37,000 179 450 0
2019-02-15 21:41:14 GMT 45.306198 2.773329 37,000 179 450 0
2019-02-15 21:41:11 GMT 45.311646 2.773263 37,000 179 450 0
2019-02-15 21:41:08 GMT 45.319107 2.773067 37,000 179 450 0
2019-02-15 21:41:04 GMT 45.326469 2.772909 37,000 179 450 0
2019-02-15 21:41:01 GMT 45.332840 2.772805 37,000 179 450 0
2019-02-15 21:40:58 GMT 45.337830 2.772675 37,000 179 450 0
2019-02-15 21:40:53 GMT 45.350006 2.772413 37,000 179 451 0
2019-02-15 21:40:50 GMT 45.356358 2.772306 37,000 179 451 0
2019-02-15 21:40:47 GMT 45.360809 2.772217 37,000 179 451 0
2019-02-15 21:40:44 GMT 45.369301 2.772038 37,000 179 451 0
2019-02-15 21:40:40 GMT 45.376099 2.771890 37,000 179 451 0
2019-02-15 21:40:37 GMT 45.382416 2.771759 37,000 179 451 0
2019-02-15 21:40:34 GMT 45.389317 2.771569 37,000 179 451 0
2019-02-15 21:40:31 GMT 45.394547 2.771432 37,000 179 451 0
2019-02-15 21:40:27 GMT 45.403793 2.771236 37,000 179 451 0
2019-02-15 21:40:22 GMT 45.419312 2.770909 37,000 179 451 0
2019-02-15 21:40:19 GMT 45.428101 2.770778 37,000 179 451 0
2019-02-15 21:40:15 GMT 45.428101 2.770778 37,000 179 451 0
2019-02-15 21:40:12 GMT 45.441689 2.770430 37,000 179 451 0
2019-02-15 21:40:09 GMT 45.441689 2.770430 37,000 179 451 0
2019-02-15 21:40:05 GMT 45.449600 2.770296 37,000 179 451 0
2019-02-15 21:40:02 GMT 45.456024 2.770162 37,000 179 451 0
2019-02-15 21:39:59 GMT 45.461700 2.769993 37,000 179 451 0
2019-02-15 21:39:55 GMT 45.470455 2.769827 37,000 179 451 0
2019-02-15 21:39:51 GMT 45.478092 2.769627 37,000 179 451 0
2019-02-15 21:39:48 GMT 45.484268 2.769536 37,000 179 449 0
2019-02-15 21:39:44 GMT 45.492188 2.769339 37,000 179 450 0
2019-02-15 21:39:38 GMT 45.506058 2.769012 37,000 179 450 0
2019-02-15 21:39:34 GMT 45.514263 2.768823 37,000 179 450 0
2019-02-15 21:39:31 GMT 45.519745 2.768685 37,000 179 450 0
2019-02-15 21:39:27 GMT 45.528076 2.768489 37,000 179 450 0
2019-02-15 21:39:23 GMT 45.536327 2.768354 37,000 179 450 0
2019-02-15 21:39:19 GMT 45.555038 2.767885 37,000 179 450 0
2019-02-15 21:39:15 GMT 45.555038 2.767885 37,000 179 450 0
2019-02-15 21:39:12 GMT 45.559570 2.767818 37,000 179 450 0
2019-02-15 21:39:07 GMT 45.569824 2.767550 37,000 179 449 0
2019-02-15 21:38:59 GMT 45.586559 2.767181 37,000 179 449 0
2019-02-15 21:38:56 GMT 45.603783 2.766838 37,000 179 449 0
2019-02-15 21:38:51 GMT 45.610905 2.766632 37,000 179 449 0
2019-02-15 21:38:48 GMT 45.610905 2.766632 37,000 179 449 0
2019-02-15 21:38:43 GMT 45.619701 2.766426 37,000 179 449 0
2019-02-15 21:38:40 GMT 45.636154 2.766076 37,000 179 449 0
2019-02-15 21:38:36 GMT 45.636154 2.766076 37,000 179 449 0
2019-02-15 21:38:30 GMT 45.646225 2.765875 37,000 179 449 0
2019-02-15 21:38:25 GMT 45.658081 2.765607 37,000 179 449 0
2019-02-15 21:38:17 GMT 45.673828 2.765272 37,000 179 449 0
2019-02-15 21:38:13 GMT 45.682205 2.765138 37,000 179 449 0
2019-02-15 21:38:08 GMT 45.700378 2.764736 37,000 179 449 0
2019-02-15 21:38:04 GMT 45.700378 2.764736 37,000 179 448 0
2019-02-15 21:37:58 GMT 45.712509 2.764535 37,000 179 449 0
2019-02-15 21:37:55 GMT 45.718719 2.764366 37,000 179 449 0
2019-02-15 21:37:51 GMT 45.728123 2.764229 37,000 179 449 0
2019-02-15 21:37:46 GMT 45.737247 2.764023 37,000 179 449 0
2019-02-15 21:37:43 GMT 45.744370 2.763865 37,000 179 449 0
2019-02-15 21:37:40 GMT 45.749771 2.763731 37,000 179 449 0
2019-02-15 21:37:35 GMT 45.766483 2.763405 37,000 179 448 0
2019-02-15 21:37:26 GMT 45.779526 2.763129 37,000 179 448 0
2019-02-15 21:37:22 GMT 45.788177 2.762928 37,000 179 448 0
2019-02-15 21:37:15 GMT 45.802689 2.762660 37,000 179 448 0
2019-02-15 21:37:12 GMT 45.808228 2.762526 37,000 179 448 0
2019-02-15 21:37:09 GMT 45.815643 2.762375 37,000 179 448 0
2019-02-15 21:37:04 GMT 45.825027 2.762191 37,000 179 448 0
2019-02-15 21:36:59 GMT 45.835659 2.761963 37,000 179 448 0
2019-02-15 21:36:53 GMT 45.846691 2.761757 37,000 179 448 0
2019-02-15 21:36:50 GMT 45.854050 2.761588 37,000 179 448 0
2019-02-15 21:36:44 GMT 45.865639 2.761345 37,000 179 448 0
2019-02-15 21:36:40 GMT 45.875473 2.761052 37,000 179 448 0
2019-02-15 21:36:33 GMT 45.888931 2.760784 37,000 179 448 0
2019-02-15 21:36:29 GMT 45.897667 2.760590 37,000 179 448 0
2019-02-15 21:36:23 GMT 45.910049 2.760246 37,000 179 448 0
2019-02-15 21:36:18 GMT 45.920654 2.760047 37,000 179 448 0
2019-02-15 21:36:15 GMT 45.932877 2.759712 37,000 179 448 0
2019-02-15 21:36:07 GMT 45.941666 2.759511 37,000 179 448 0
2019-02-15 21:36:02 GMT 45.953438 2.759285 37,000 179 449 0
2019-02-15 21:35:57 GMT 45.964188 2.759042 37,000 179 449 0
2019-02-15 21:35:51 GMT 45.985428 2.758573 37,000 179 449 0
2019-02-15 21:35:46 GMT 45.985428 2.758573 37,000 179 449 0
2019-02-15 21:35:41 GMT 45.996231 2.758305 37,000 179 449 0
2019-02-15 21:35:35 GMT 46.008320 2.757980 37,000 179 449 0
2019-02-15 21:35:30 GMT 46.019772 2.757706 37,000 178 449 0
2019-02-15 21:35:25 GMT 46.030201 2.757500 37,000 179 449 0
2019-02-15 21:35:20 GMT 46.039719 2.757233 37,000 179 449 0
2019-02-15 21:35:14 GMT 46.051056 2.757019 37,000 179 449 0
2019-02-15 21:35:10 GMT 46.061554 2.756764 37,000 179 449 0
2019-02-15 21:35:05 GMT 46.073959 2.756470 37,000 179 448 0
2019-02-15 21:35:00 GMT 46.082432 2.756264 37,000 179 449 0
2019-02-15 21:34:52 GMT 46.099274 2.755894 37,000 179 448 0
2019-02-15 21:34:49 GMT 46.104813 2.755827 37,000 179 448 0
2019-02-15 21:34:41 GMT 46.126240 2.755371 37,000 179 449 0
2019-02-15 21:34:33 GMT 46.136711 2.755165 37,000 178 449 0
2019-02-15 21:34:30 GMT 46.143929 2.755028 37,000 179 449 0
2019-02-15 21:34:20 GMT 46.165375 2.754621 37,000 179 449 0
2019-02-15 21:34:13 GMT 46.179520 2.754353 37,000 179 448 0
2019-02-15 21:34:10 GMT 46.187302 2.754219 37,000 179 448 0
2019-02-15 21:34:02 GMT 46.201698 2.753860 37,000 178 449 0
2019-02-15 21:33:59 GMT 46.208405 2.753750 37,000 179 449 0
2019-02-15 21:33:56 GMT 46.213852 2.753616 37,000 179 449 0
2019-02-15 21:33:51 GMT 46.225754 2.753281 37,000 178 449 0
2019-02-15 21:33:45 GMT 46.237198 2.753013 37,000 178 449 0
2019-02-15 21:33:40 GMT 46.248066 2.752762 37,000 178 449 0
2019-02-15 21:33:37 GMT 46.254318 2.752611 37,000 178 449 0
2019-02-15 21:33:34 GMT 46.259563 2.752487 37,000 179 449 0
2019-02-15 21:33:28 GMT 46.272995 2.752142 37,000 178 449 0
2019-02-15 21:33:24 GMT 46.281281 2.751941 37,000 179 449 0
2019-02-15 21:33:18 GMT 46.295269 2.751663 37,000 179 449 0
2019-02-15 21:33:13 GMT 46.303619 2.751472 37,000 179 450 0
2019-02-15 21:33:09 GMT 46.312077 2.751251 37,000 179 450 0
2019-02-15 21:33:02 GMT 46.326134 2.750977 37,000 179 450 0
2019-02-15 21:32:59 GMT 46.335583 2.750771 37,000 179 450 0
2019-02-15 21:32:56 GMT 46.338703 2.750702 37,000 179 450 0
2019-02-15 21:32:53 GMT 46.352715 2.750427 37,000 179 450 0
2019-02-15 21:32:50 GMT 46.352715 2.750427 37,000 179 450 0
2019-02-15 21:32:47 GMT 46.357361 2.750333 37,000 179 450 0
2019-02-15 21:32:44 GMT 46.362724 2.750221 37,000 179 450 0
2019-02-15 21:32:40 GMT 46.370918 2.750015 37,000 179 450 0
2019-02-15 21:32:36 GMT 46.385769 2.749672 37,000 179 450 0
2019-02-15 21:32:30 GMT 46.393524 2.749463 37,000 179 450 0
2019-02-15 21:32:23 GMT 46.409973 2.749123 37,000 179 450 0
2019-02-15 21:32:19 GMT 46.416351 2.748917 37,000 179 450 0
2019-02-15 21:32:15 GMT 46.423382 2.748779 37,000 179 450 0
2019-02-15 21:32:12 GMT 46.431107 2.748592 37,000 179 450 0
2019-02-15 21:32:09 GMT 46.436096 2.748458 37,000 179 450 0
2019-02-15 21:32:03 GMT 46.449032 2.748161 37,000 178 450 0
2019-02-15 21:31:58 GMT 46.459030 2.747922 37,000 178 450 0
2019-02-15 21:31:55 GMT 46.466068 2.747749 37,000 178 450 0
2019-02-15 21:31:52 GMT 46.471146 2.747612 37,000 178 450 0
2019-02-15 21:31:48 GMT 46.479538 2.747453 37,000 178 450 0
2019-02-15 21:31:45 GMT 46.487320 2.747252 37,000 178 450 0
2019-02-15 21:31:42 GMT 46.491577 2.747118 37,000 178 450 0
2019-02-15 21:31:39 GMT 46.498981 2.746925 37,000 178 450 0
2019-02-15 21:31:35 GMT 46.508560 2.746716 37,000 178 450 0
2019-02-15 21:31:32 GMT 46.512772 2.746582 37,000 178 450 0
2019-02-15 21:31:28 GMT 46.521980 2.746376 37,000 179 451 0
2019-02-15 21:31:23 GMT 46.532593 2.746113 37,000 179 451 0
2019-02-15 21:31:20 GMT 46.538910 2.745979 37,000 179 451 0
2019-02-15 21:31:16 GMT 46.546791 2.745827 37,000 179 451 0
2019-02-15 21:31:10 GMT 46.559826 2.745483 37,000 179 451 0
2019-02-15 21:31:05 GMT 46.568951 2.745277 37,000 179 451 0
2019-02-15 21:31:02 GMT 46.576679 2.745071 37,000 179 451 0
2019-02-15 21:30:59 GMT 46.582031 2.744974 37,000 179 451 0
2019-02-15 21:30:55 GMT 46.591003 2.744773 37,000 179 451 0
2019-02-15 21:30:49 GMT 46.603180 2.744505 37,000 179 451 0
2019-02-15 21:30:44 GMT 46.613453 2.744316 37,000 179 451 0
2019-02-15 21:30:41 GMT 46.619507 2.744179 37,000 179 451 0
2019-02-15 21:30:38 GMT 46.624924 2.744036 37,000 179 451 0
2019-02-15 21:30:34 GMT 46.633255 2.743835 37,000 179 451 0
2019-02-15 21:30:28 GMT 46.646988 2.743567 37,000 179 452 0
2019-02-15 21:30:23 GMT 46.656281 2.743367 37,000 179 452 0
2019-02-15 21:30:18 GMT 46.667816 2.743099 37,000 179 452 0
2019-02-15 21:30:12 GMT 46.681515 2.742805 37,000 179 452 0
2019-02-15 21:30:07 GMT 46.689560 2.742630 37,000 179 452 0
2019-02-15 21:30:04 GMT 46.697296 2.742531 37,000 179 452 0
2019-02-15 21:30:01 GMT 46.704464 2.742325 37,000 179 452 0
2019-02-15 21:29:57 GMT 46.710514 2.742256 37,000 179 453 0
2019-02-15 21:29:51 GMT 46.724949 2.741982 37,000 179 452 0
2019-02-15 21:29:45 GMT 46.739285 2.741638 37,000 179 453 0
2019-02-15 21:29:42 GMT 46.742615 2.741625 37,000 179 453 0
2019-02-15 21:29:39 GMT 46.746735 2.741491 37,000 179 453 0
2019-02-15 21:29:35 GMT 46.756622 2.741290 37,000 179 453 0
2019-02-15 21:29:32 GMT 46.763672 2.741156 37,000 179 453 0
2019-02-15 21:29:29 GMT 46.769623 2.741022 37,000 179 453 0
2019-02-15 21:29:22 GMT 46.784950 2.740677 37,000 178 453 0
2019-02-15 21:29:19 GMT 46.792309 2.740471 37,000 178 453 0
2019-02-15 21:29:14 GMT 46.800339 2.740285 37,000 178 453 0
2019-02-15 21:29:11 GMT 46.807709 2.740084 37,000 178 453 0
2019-02-15 21:29:08 GMT 46.814209 2.739950 37,000 178 453 0
2019-02-15 21:29:04 GMT 46.829411 2.739578 37,000 178 453 0
2019-02-15 21:29:00 GMT 46.829411 2.739578 37,000 178 453 0
2019-02-15 21:28:53 GMT 46.845238 2.739166 37,000 179 453 0
2019-02-15 21:28:50 GMT 46.851990 2.738960 37,000 178 453 0
2019-02-15 21:28:47 GMT 46.858414 2.738823 37,000 178 453 0
2019-02-15 21:28:40 GMT 46.872437 2.738480 37,000 179 454 0
2019-02-15 21:28:32 GMT 46.889740 2.738068 37,000 179 453 0
2019-02-15 21:28:29 GMT 46.895420 2.737920 37,000 179 453 0
2019-02-15 21:28:23 GMT 46.908779 2.737638 37,000 179 454 0
2019-02-15 21:28:19 GMT 46.916794 2.737450 37,000 179 454 0
2019-02-15 21:28:15 GMT 46.926098 2.737215 37,000 179 454 0
2019-02-15 21:28:12 GMT 46.930290 2.737145 37,000 179 454 0
2019-02-15 21:28:08 GMT 46.939819 2.736900 37,000 179 454 0
2019-02-15 21:28:05 GMT 46.947281 2.736723 37,000 179 454 0
2019-02-15 21:28:00 GMT 46.955708 2.736582 37,000 179 454 0
2019-02-15 21:27:57 GMT 46.962036 2.736441 37,000 179 454 0
2019-02-15 21:27:52 GMT 46.973766 2.736230 37,000 179 454 0
2019-02-15 21:27:47 GMT 46.984131 2.736008 37,000 179 454 0
2019-02-15 21:27:42 GMT 46.994064 2.735802 37,000 179 454 0
2019-02-15 21:27:39 GMT 47.002537 2.735666 37,000 179 454 0
2019-02-15 21:27:36 GMT 47.005981 2.735596 37,000 179 455 0
2019-02-15 21:27:33 GMT 47.013611 2.735390 37,000 179 454 0
2019-02-15 21:27:29 GMT 47.020741 2.735244 37,000 179 455 0
2019-02-15 21:27:26 GMT 47.027939 2.735115 37,000 179 455 0
2019-02-15 21:27:23 GMT 47.034256 2.734978 37,000 179 454 0
2019-02-15 21:27:19 GMT 47.042618 2.734821 37,000 179 454 0
2019-02-15 21:27:15 GMT 47.050186 2.734634 37,000 179 454 0
2019-02-15 21:27:12 GMT 47.057739 2.734428 37,000 179 454 0
2019-02-15 21:27:09 GMT 47.063553 2.734291 37,000 179 454 0
2019-02-15 21:27:05 GMT 47.077194 2.734016 37,000 179 454 0
2019-02-15 21:27:02 GMT 47.077194 2.734016 37,000 179 454 0
2019-02-15 21:26:59 GMT 47.083786 2.733810 37,000 179 454 0
2019-02-15 21:26:52 GMT 47.099167 2.733467 37,000 179 454 0
2019-02-15 21:26:49 GMT 47.105743 2.733342 37,000 179 454 0
2019-02-15 21:26:44 GMT 47.115829 2.733124 37,000 179 454 0
2019-02-15 21:26:39 GMT 47.126266 2.732918 37,000 179 454 0
2019-02-15 21:26:33 GMT 47.138397 2.732643 37,000 179 454 0
2019-02-15 21:26:27 GMT 47.151039 2.732356 37,000 179 454 0
2019-02-15 21:26:22 GMT 47.162155 2.732094 37,000 179 454 0
2019-02-15 21:26:18 GMT 47.169846 2.731888 37,000 179 454 0
2019-02-15 21:26:10 GMT 47.187378 2.731544 37,000 179 454 0
2019-02-15 21:26:04 GMT 47.198849 2.731229 37,000 179 454 0
2019-02-15 21:26:01 GMT 47.205132 2.731088 37,000 179 454 0
2019-02-15 21:25:58 GMT 47.214630 2.730877 37,000 178 453 0
2019-02-15 21:25:55 GMT 47.218094 2.730789 37,000 179 454 0
2019-02-15 21:25:50 GMT 47.229668 2.730525 37,000 179 453 0
2019-02-15 21:25:44 GMT 47.241070 2.730243 37,000 178 453 0
2019-02-15 21:25:39 GMT 47.251740 2.729965 37,000 178 454 0
2019-02-15 21:25:35 GMT 47.259876 2.729750 37,000 178 454 0
2019-02-15 21:25:30 GMT 47.271194 2.729485 37,000 178 454 0
2019-02-15 21:25:27 GMT 47.277328 2.729279 37,000 178 454 0
2019-02-15 21:25:23 GMT 47.284607 2.729141 37,000 179 454 0
2019-02-15 21:25:18 GMT 47.295868 2.728867 37,000 179 454 0
2019-02-15 21:25:15 GMT 47.303055 2.728661 37,000 178 454 0
2019-02-15 21:25:12 GMT 47.308434 2.728483 37,000 178 454 0
2019-02-15 21:25:09 GMT 47.314865 2.728317 37,000 178 454 0
2019-02-15 21:25:06 GMT 47.321560 2.728131 37,000 178 454 0
2019-02-15 21:25:03 GMT 47.327751 2.727990 37,000 178 454 0
2019-02-15 21:24:56 GMT 47.343475 2.727631 37,000 179 454 0
2019-02-15 21:24:52 GMT 47.351120 2.727426 37,000 179 454 0
2019-02-15 21:24:47 GMT 47.361191 2.727219 37,000 179 454 0
2019-02-15 21:24:44 GMT 47.369881 2.727004 37,000 179 454 0
2019-02-15 21:24:38 GMT 47.379227 2.726807 37,000 179 454 0
2019-02-15 21:24:35 GMT 47.386276 2.726669 37,000 179 454 0
2019-02-15 21:24:30 GMT 47.397160 2.726370 37,000 179 454 0
2019-02-15 21:24:26 GMT 47.404236 2.726229 37,000 179 454 0
2019-02-15 21:24:23 GMT 47.420242 2.725845 37,000 179 454 0
2019-02-15 21:24:16 GMT 47.425461 2.725708 37,000 178 454 0
2019-02-15 21:24:13 GMT 47.431004 2.725595 37,000 179 454 0
2019-02-15 21:24:09 GMT 47.442829 2.725314 37,000 179 454 0
2019-02-15 21:24:06 GMT 47.452744 2.725090 37,000 179 454 0
2019-02-15 21:23:59 GMT 47.461868 2.724891 37,000 179 455 0
2019-02-15 21:23:55 GMT 47.470249 2.724680 37,000 179 455 0
2019-02-15 21:23:52 GMT 47.476730 2.724541 37,000 179 455 0
2019-02-15 21:23:47 GMT 47.487076 2.724335 37,000 179 455 0
2019-02-15 21:23:44 GMT 47.493484 2.724197 37,000 179 455 0
2019-02-15 21:23:39 GMT 47.504105 2.723923 37,000 179 455 0
2019-02-15 21:23:35 GMT 47.512470 2.723764 37,000 179 455 0
2019-02-15 21:23:32 GMT 47.519642 2.723623 37,000 179 455 0
2019-02-15 21:23:29 GMT 47.524899 2.723483 37,000 179 455 0
2019-02-15 21:23:24 GMT 47.535782 2.723236 37,000 179 455 0
2019-02-15 21:23:20 GMT 47.544205 2.723099 37,000 179 455 0
2019-02-15 21:23:12 GMT 47.560791 2.722708 37,000 179 455 0
2019-02-15 21:23:05 GMT 47.585907 2.722137 37,000 179 455 0
2019-02-15 21:23:01 GMT 47.585907 2.722137 37,000 179 455 0
2019-02-15 21:22:57 GMT 47.592773 2.722000 37,000 179 455 0
2019-02-15 21:22:53 GMT 47.599293 2.721863 37,000 179 455 0
2019-02-15 21:22:50 GMT 47.605453 2.721725 37,000 179 455 0
2019-02-15 21:22:47 GMT 47.611908 2.721519 37,000 179 455 0
2019-02-15 21:22:44 GMT 47.618050 2.721370 37,000 179 455 0
2019-02-15 21:22:41 GMT 47.626740 2.721176 37,000 179 455 0
2019-02-15 21:22:36 GMT 47.634949 2.721018 37,000 179 455 0
2019-02-15 21:22:31 GMT 47.647614 2.720695 37,000 178 455 0
2019-02-15 21:22:22 GMT 47.664917 2.720284 37,000 179 455 0
2019-02-15 21:22:19 GMT 47.671921 2.720078 37,000 179 455 0
2019-02-15 21:22:14 GMT 47.682495 2.719803 37,000 178 455 0
2019-02-15 21:22:10 GMT 47.696957 2.719468 37,000 179 455 0
2019-02-15 21:22:04 GMT 47.703194 2.719327 37,000 179 455 0
2019-02-15 21:21:58 GMT 47.717113 2.719046 37,000 179 455 0
2019-02-15 21:21:53 GMT 47.725540 2.718835 37,000 179 455 0
2019-02-15 21:21:50 GMT 47.737923 2.718553 37,000 178 455 0
2019-02-15 21:21:47 GMT 47.737923 2.718553 37,000 178 455 0
2019-02-15 21:21:42 GMT 47.749516 2.718201 37,000 178 455 0
2019-02-15 21:21:39 GMT 47.754639 2.718086 37,000 178 455 0
2019-02-15 21:21:36 GMT 47.763245 2.717880 37,000 178 455 0
2019-02-15 21:21:30 GMT 47.780914 2.717468 37,000 178 454 0
2019-02-15 21:21:27 GMT 47.780914 2.717468 37,000 178 455 0
2019-02-15 21:21:20 GMT 47.795368 2.717074 37,000 178 455 0
2019-02-15 21:21:16 GMT 47.805237 2.716863 37,000 179 455 0
2019-02-15 21:21:13 GMT 47.815899 2.716581 37,000 179 455 0
2019-02-15 21:21:10 GMT 47.815899 2.716581 37,000 178 454 0
2019-02-15 21:21:06 GMT 47.823990 2.716370 37,000 178 454 0
2019-02-15 21:21:03 GMT 47.831497 2.716232 37,000 179 454 0
2019-02-15 21:21:00 GMT 47.837723 2.716026 37,000 178 454 0
2019-02-15 21:20:55 GMT 47.849880 2.715736 37,000 178 454 0
2019-02-15 21:20:49 GMT 47.860683 2.715454 37,000 178 454 0
2019-02-15 21:20:46 GMT 47.867157 2.715271 37,000 178 454 0
2019-02-15 21:20:42 GMT 47.874462 2.715102 37,000 178 454 0
2019-02-15 21:20:39 GMT 47.880791 2.714961 37,000 178 454 0
2019-02-15 21:20:36 GMT 47.888260 2.714790 37,000 179 454 0
2019-02-15 21:20:32 GMT 47.896015 2.714609 37,000 179 454 0
2019-02-15 21:20:29 GMT 47.901810 2.714447 37,000 179 454 0
2019-02-15 21:20:26 GMT 47.910370 2.714241 37,000 179 454 0
2019-02-15 21:20:21 GMT 47.925484 2.713905 37,000 179 454 0
2019-02-15 21:20:18 GMT 47.933815 2.713693 37,000 179 454 0
2019-02-15 21:20:14 GMT 47.933815 2.713693 37,000 179 454 0
2019-02-15 21:20:11 GMT 47.940262 2.713554 37,000 179 454 0
2019-02-15 21:20:07 GMT 47.949318 2.713341 37,000 179 454 0
2019-02-15 21:20:03 GMT 47.957092 2.713200 37,000 179 454 0
2019-02-15 21:20:00 GMT 47.963421 2.713060 37,000 179 454 0
2019-02-15 21:19:57 GMT 47.968681 2.712989 37,000 179 454 0
2019-02-15 21:19:54 GMT 47.976471 2.712799 37,000 179 454 0
2019-02-15 21:19:51 GMT 47.982044 2.712708 37,000 179 454 0
2019-02-15 21:19:48 GMT 47.988979 2.712567 37,000 179 454 0
2019-02-15 21:19:41 GMT 48.004341 2.712215 37,000 179 453 0
2019-02-15 21:19:37 GMT 48.010674 2.712074 37,000 179 453 0
2019-02-15 21:19:31 GMT 48.023800 2.711792 37,000 179 453 0
2019-02-15 21:19:27 GMT 48.031433 2.711651 37,000 179 453 0
2019-02-15 21:19:23 GMT 48.040421 2.711440 37,000 179 453 0
2019-02-15 21:19:20 GMT 48.048431 2.711288 37,000 179 453 0
2019-02-15 21:19:16 GMT 48.054523 2.711158 37,000 179 453 0
2019-02-15 21:19:12 GMT 48.063492 2.710945 37,000 179 453 0
2019-02-15 21:19:09 GMT 48.070267 2.710808 37,000 179 453 0
2019-02-15 21:19:06 GMT 48.075302 2.710670 37,000 178 453 0
2019-02-15 21:19:02 GMT 48.083908 2.710464 37,000 178 453 0
2019-02-15 21:18:57 GMT 48.098145 2.710052 37,000 178 453 0
2019-02-15 21:18:52 GMT 48.106384 2.709820 37,000 179 453 0
2019-02-15 21:18:48 GMT 48.113937 2.709503 37,000 203 450 0
2019-02-15 21:18:42 GMT 48.127487 2.709641 37,000 184 452 0
2019-02-15 21:18:38 GMT 48.135544 2.710190 37,000 185 452 0
2019-02-15 21:18:34 GMT 48.142731 2.711014 37,000 186 453 0
2019-02-15 21:18:30 GMT 48.150513 2.712318 37,000 191 452 0
2019-02-15 21:18:26 GMT 48.158936 2.714104 37,000 190 452 0
2019-02-15 21:18:23 GMT 48.165272 2.715719 37,000 191 452 0
2019-02-15 21:18:20 GMT 48.173046 2.718104 37,000 195 451 0
2019-02-15 21:18:15 GMT 48.181614 2.721212 37,000 197 450 0
2019-02-15 21:18:11 GMT 48.191620 2.725525 37,000 198 451 0
2019-02-15 21:18:08 GMT 48.195766 2.727573 37,000 199 450 0
2019-02-15 21:18:05 GMT 48.202282 2.731114 37,000 202 449 0
2019-02-15 21:18:02 GMT 48.209171 2.735234 37,000 204 449 0
2019-02-15 21:17:59 GMT 48.213318 2.737849 37,000 204 449 0
2019-02-15 21:17:55 GMT 48.221512 2.743061 37,000 204 449 0
2019-02-15 21:17:52 GMT 48.232178 2.749822 37,000 204 449 0
2019-02-15 21:17:49 GMT 48.232178 2.749822 37,000 204 449 0
2019-02-15 21:17:44 GMT 48.242783 2.756556 37,000 204 449 0
2019-02-15 21:17:38 GMT 48.253464 2.763414 37,000 204 449 0
2019-02-15 21:17:34 GMT 48.264290 2.770289 37,000 204 449 0
2019-02-15 21:17:28 GMT 48.272110 2.775277 37,000 204 449 0
2019-02-15 21:17:22 GMT 48.283905 2.782781 37,000 204 449 0
2019-02-15 21:17:17 GMT 48.294388 2.789471 37,000 204 449 0
2019-02-15 21:17:12 GMT 48.303764 2.795442 37,000 204 449 0
2019-02-15 21:17:07 GMT 48.313248 2.801514 37,000 203 450 0
2019-02-15 21:17:02 GMT 48.325226 2.809175 37,000 203 450 0
2019-02-15 21:16:57 GMT 48.333481 2.814401 37,000 203 450 0
2019-02-15 21:16:53 GMT 48.340897 2.819120 37,000 204 451 0
2019-02-15 21:16:50 GMT 48.344776 2.821607 37,000 204 451 0
2019-02-15 21:16:47 GMT 48.352386 2.826515 37,000 204 451 0
2019-02-15 21:16:42 GMT 48.361629 2.832377 37,000 204 451 0
2019-02-15 21:16:39 GMT 48.373314 2.839894 37,000 204 451 0
2019-02-15 21:16:36 GMT 48.373314 2.839894 37,000 204 451 0
2019-02-15 21:16:32 GMT 48.380623 2.844519 37,000 204 451 0
2019-02-15 21:16:29 GMT 48.386490 2.848276 37,000 204 451 0
2019-02-15 21:16:26 GMT 48.402874 2.858831 37,000 204 451 0
2019-02-15 21:16:21 GMT 48.407822 2.862009 37,000 204 452 0
2019-02-15 21:16:14 GMT 48.413677 2.865769 37,000 204 451 0
2019-02-15 21:16:11 GMT 48.422470 2.871375 37,000 204 452 0
2019-02-15 21:16:08 GMT 48.432220 2.877643 37,000 204 451 0
2019-02-15 21:16:05 GMT 48.432220 2.877643 37,000 204 451 0
2019-02-15 21:16:02 GMT 48.437836 2.881237 37,000 204 451 0
2019-02-15 21:15:59 GMT 48.454651 2.892080 37,000 204 451 0
2019-02-15 21:15:53 GMT 48.454651 2.892080 37,000 204 451 0
2019-02-15 21:15:49 GMT 48.463348 2.897644 37,000 204 451 0
2019-02-15 21:15:44 GMT 48.473099 2.903982 37,000 204 451 0
2019-02-15 21:15:41 GMT 48.478245 2.907257 37,000 204 452 0
2019-02-15 21:15:38 GMT 48.483040 2.910365 37,000 204 452 0
2019-02-15 21:15:35 GMT 48.490036 2.914828 37,000 204 452 0
2019-02-15 21:15:30 GMT 48.498169 2.920050 37,000 204 452 0
2019-02-15 21:15:26 GMT 48.505966 2.925110 37,000 204 452 0
2019-02-15 21:15:23 GMT 48.512554 2.929302 37,000 204 452 0
2019-02-15 21:15:20 GMT 48.523354 2.936313 37,000 204 451 0
2019-02-15 21:15:13 GMT 48.532059 2.941871 37,000 204 452 0
2019-02-15 21:15:05 GMT 48.548813 2.952717 37,000 204 452 0
2019-02-15 21:15:02 GMT 48.553055 2.955467 37,000 204 452 0
2019-02-15 21:14:55 GMT 48.565159 2.963201 37,000 204 452 0
2019-02-15 21:14:52 GMT 48.571907 2.967610 37,000 204 452 0
2019-02-15 21:14:49 GMT 48.577168 2.971007 37,000 204 451 0
2019-02-15 21:14:46 GMT 48.585068 2.976098 37,000 204 451 0
2019-02-15 21:14:41 GMT 48.592995 2.981198 37,000 204 451 0
2019-02-15 21:14:34 GMT 48.606354 2.989871 37,000 204 451 0
2019-02-15 21:14:31 GMT 48.613060 2.994208 37,000 204 451 0
2019-02-15 21:14:24 GMT 48.627640 3.003634 37,000 204 451 0
2019-02-15 21:14:21 GMT 48.631302 3.006028 37,000 204 451 0
2019-02-15 21:14:18 GMT 48.638992 3.011029 37,000 204 451 0
2019-02-15 21:14:14 GMT 48.645367 3.015169 37,000 204 451 0
2019-02-15 21:14:09 GMT 48.653458 3.020395 37,000 204 451 0
2019-02-15 21:14:04 GMT 48.664825 3.027745 37,000 204 451 0
2019-02-15 21:13:58 GMT 48.674553 3.034106 37,000 204 451 0
2019-02-15 21:13:53 GMT 48.685215 3.041045 37,000 204 451 0
2019-02-15 21:13:49 GMT 48.692848 3.045959 37,000 204 451 0
2019-02-15 21:13:43 GMT 48.704269 3.053425 37,000 204 451 0
2019-02-15 21:13:39 GMT 48.711609 3.058247 37,000 204 451 0
2019-02-15 21:13:36 GMT 48.717682 3.062228 37,000 204 451 0
2019-02-15 21:13:33 GMT 48.724731 3.066805 37,000 204 451 0
2019-02-15 21:13:27 GMT 48.734840 3.073353 37,000 204 451 0
2019-02-15 21:13:20 GMT 48.747547 3.081737 37,000 204 451 0
2019-02-15 21:13:16 GMT 48.755417 3.086869 37,000 204 451 0
2019-02-15 21:13:12 GMT 48.764259 3.092579 37,000 204 451 0
2019-02-15 21:13:08 GMT 48.771290 3.097205 37,000 204 451 0
2019-02-15 21:13:05 GMT 48.777328 3.101102 37,000 204 451 0
2019-02-15 21:13:01 GMT 48.785110 3.106173 37,000 204 451 0
2019-02-15 21:12:57 GMT 48.792664 3.111103 37,000 204 451 0
2019-02-15 21:12:54 GMT 48.798103 3.114624 37,000 204 451 0
2019-02-15 21:12:51 GMT 48.805389 3.119343 37,000 208 450 0
2019-02-15 21:12:48 GMT 48.811558 3.123297 37,000 204 451 -64
2019-02-15 21:12:43 GMT 48.818298 3.127653 37,000 205 451 0
2019-02-15 21:12:40 GMT 48.825615 3.132766 37,000 208 450 0
2019-02-15 21:12:37 GMT 48.830597 3.136380 37,000 207 451 0
2019-02-15 21:12:33 GMT 48.837952 3.142090 37,000 211 450 0
2019-02-15 21:12:28 GMT 48.847450 3.150113 37,000 210 450 0
2019-02-15 21:12:25 GMT 48.853455 3.155534 37,000 213 450 0
2019-02-15 21:12:20 GMT 48.861328 3.163077 37,000 215 450 0
2019-02-15 21:12:17 GMT 48.866116 3.167966 37,000 216 449 0
2019-02-15 21:12:14 GMT 48.871445 3.173640 37,000 219 449 0
2019-02-15 21:12:10 GMT 48.877899 3.180894 37,000 218 448 0
2019-02-15 21:12:07 GMT 48.881927 3.185613 37,000 221 449 0
2019-02-15 21:12:03 GMT 48.899139 3.208571 37,000 223 447 0
2019-02-15 21:11:57 GMT 48.899139 3.208571 37,000 224 447 0
2019-02-15 21:11:53 GMT 48.905033 3.217043 37,000 224 447 0
2019-02-15 21:11:47 GMT 48.913136 3.228607 37,000 224 447 0
2019-02-15 21:11:43 GMT 48.920700 3.239488 37,000 224 447 0
2019-02-15 21:11:38 GMT 48.928482 3.250685 37,000 224 447 0
2019-02-15 21:11:35 GMT 48.930779 3.254049 37,000 224 447 0
2019-02-15 21:11:32 GMT 48.936226 3.261855 37,000 224 447 0
2019-02-15 21:11:29 GMT 48.941902 3.270023 37,000 224 447 0
2019-02-15 21:11:25 GMT 48.947910 3.278696 37,000 224 447 0
2019-02-15 21:11:21 GMT 48.952423 3.285123 37,000 224 447 0
2019-02-15 21:11:17 GMT 48.958477 3.293875 37,000 224 447 0
2019-02-15 21:11:14 GMT 48.963642 3.301319 37,000 224 447 0
2019-02-15 21:11:08 GMT 48.972115 3.313534 37,000 224 447 0
2019-02-15 21:11:03 GMT 48.978973 3.323505 37,000 224 447 0
2019-02-15 21:11:00 GMT 48.989292 3.338398 37,000 224 447 0
2019-02-15 21:10:57 GMT 48.994041 3.345265 37,000 224 447 0
2019-02-15 21:10:53 GMT 48.994041 3.345265 37,000 224 447 0
2019-02-15 21:10:48 GMT 49.001957 3.356685 37,000 224 447 0
2019-02-15 21:10:45 GMT 49.007996 3.365408 37,000 224 447 0
2019-02-15 21:10:42 GMT 49.010422 3.368929 37,000 224 447 0
2019-02-15 21:10:39 GMT 49.016014 3.377067 37,000 224 447 0
2019-02-15 21:10:35 GMT 49.021179 3.384493 37,000 224 447 0
2019-02-15 21:10:32 GMT 49.025848 3.391184 37,000 224 446 0
2019-02-15 21:10:28 GMT 49.031143 3.398895 37,000 224 447 0
2019-02-15 21:10:24 GMT 49.037521 3.408086 37,000 224 447 0
2019-02-15 21:10:21 GMT 49.042419 3.415269 37,000 224 447 0
2019-02-15 21:10:17 GMT 49.048462 3.424002 37,000 224 447 0
2019-02-15 21:10:11 GMT 49.056839 3.436185 37,000 224 446 0
2019-02-15 21:10:08 GMT 49.063545 3.445876 37,000 224 446 0
2019-02-15 21:10:03 GMT 49.070480 3.455975 37,000 224 446 0
2019-02-15 21:09:59 GMT 49.076439 3.464596 37,000 224 446 0
2019-02-15 21:09:54 GMT 49.082584 3.473487 37,000 224 446 0
2019-02-15 21:09:50 GMT 49.087967 3.481328 37,000 224 446 0
2019-02-15 21:09:46 GMT 49.094879 3.491399 37,000 224 446 0
2019-02-15 21:09:42 GMT 49.100182 3.499073 37,000 224 446 0
2019-02-15 21:09:39 GMT 49.104465 3.505361 37,000 224 446 0
2019-02-15 21:09:35 GMT 49.112053 3.516420 37,000 224 446 0
2019-02-15 21:09:31 GMT 49.117172 3.523794 37,000 224 446 0
2019-02-15 21:09:28 GMT 49.121178 3.529575 37,000 224 446 0
2019-02-15 21:09:24 GMT 49.132629 3.546271 37,000 224 446 0
2019-02-15 21:09:17 GMT 49.137222 3.552950 37,000 224 447 0
2019-02-15 21:09:14 GMT 49.142174 3.560221 37,000 224 446 0
2019-02-15 21:09:11 GMT 49.146828 3.566943 37,000 224 446 0
2019-02-15 21:09:07 GMT 49.151760 3.574171 37,000 224 447 0
2019-02-15 21:09:02 GMT 49.160515 3.586819 37,000 224 447 0
2019-02-15 21:08:59 GMT 49.165146 3.593586 37,000 224 447 0
2019-02-15 21:08:56 GMT 49.168892 3.599107 37,000 224 447 0
2019-02-15 21:08:53 GMT 49.174248 3.606913 37,000 224 447 0
2019-02-15 21:08:49 GMT 49.179657 3.614784 37,000 225 447 0
2019-02-15 21:08:45 GMT 49.185699 3.623609 37,000 224 447 0
2019-02-15 21:08:40 GMT 49.193161 3.634503 37,000 224 447 0
2019-02-15 21:08:36 GMT 49.199707 3.644010 37,000 224 447 0
2019-02-15 21:08:33 GMT 49.204456 3.651003 37,000 224 447 0
2019-02-15 21:08:30 GMT 49.212513 3.662784 37,000 224 447 0
2019-02-15 21:08:27 GMT 49.212513 3.662784 37,000 225 447 0
2019-02-15 21:08:24 GMT 49.216599 3.668729 37,000 224 447 0
2019-02-15 21:08:19 GMT 49.228294 3.685769 37,000 224 447 0
2019-02-15 21:08:16 GMT 49.228294 3.685769 37,000 224 447 0
2019-02-15 21:08:12 GMT 49.234222 3.694435 37,000 224 447 0
2019-02-15 21:08:09 GMT 49.238892 3.701195 37,000 224 447 0
2019-02-15 21:08:05 GMT 49.246628 3.712534 37,000 224 447 0
2019-02-15 21:08:00 GMT 49.252441 3.721055 37,000 224 447 0
2019-02-15 21:07:56 GMT 49.258366 3.729714 37,000 224 447 0
2019-02-15 21:07:50 GMT 49.267868 3.743662 37,000 224 447 0
2019-02-15 21:07:46 GMT 49.275009 3.754155 37,000 225 447 0
2019-02-15 21:07:40 GMT 49.282715 3.765492 37,000 225 447 0
2019-02-15 21:07:32 GMT 49.295425 3.784227 37,000 225 447 0
2019-02-15 21:07:29 GMT 49.299564 3.790355 37,000 225 447 0
2019-02-15 21:07:23 GMT 49.307571 3.802137 37,000 225 447 0
2019-02-15 21:07:17 GMT 49.318188 3.817894 37,000 225 447 0
2019-02-15 21:07:12 GMT 49.324722 3.827609 37,000 225 447 0
2019-02-15 21:07:08 GMT 49.330662 3.836397 37,000 225 448 0
2019-02-15 21:07:03 GMT 49.337265 3.846201 37,000 225 447 0
2019-02-15 21:07:00 GMT 49.341835 3.852949 37,000 225 447 0
2019-02-15 21:06:57 GMT 49.345459 3.858314 37,000 225 447 0
2019-02-15 21:06:54 GMT 49.351562 3.867332 37,000 225 447 0
2019-02-15 21:06:50 GMT 49.356033 3.873982 37,000 225 447 0
2019-02-15 21:06:47 GMT 49.360794 3.881061 37,000 225 447 0
2019-02-15 21:06:43 GMT 49.371208 3.896460 37,000 225 447 0
2019-02-15 21:06:40 GMT 49.377167 3.905278 37,000 225 447 0
2019-02-15 21:06:36 GMT 49.377167 3.905278 37,000 225 447 0
2019-02-15 21:06:33 GMT 49.382847 3.913735 37,000 225 447 0
2019-02-15 21:06:28 GMT 49.392929 3.928669 37,000 225 447 0
2019-02-15 21:06:21 GMT 49.399475 3.938387 37,000 225 447 0
2019-02-15 21:06:18 GMT 49.403843 3.944815 37,000 225 446 0
2019-02-15 21:06:15 GMT 49.408543 3.951753 37,000 225 447 0
2019-02-15 21:06:11 GMT 49.415386 3.961872 37,000 225 447 0
2019-02-15 21:06:08 GMT 49.418976 3.967191 37,000 225 447 0
2019-02-15 21:06:04 GMT 49.430420 3.984062 37,000 225 447 0
2019-02-15 21:06:00 GMT 49.430420 3.984062 37,000 225 447 0
2019-02-15 21:05:56 GMT 49.436508 3.993024 37,000 225 447 0
2019-02-15 21:05:53 GMT 49.442780 4.002348 37,000 225 446 0
2019-02-15 21:05:49 GMT 49.446854 4.008347 37,000 225 447 0
2019-02-15 21:05:44 GMT 49.456120 4.022110 37,000 225 446 0
2019-02-15 21:05:41 GMT 49.460312 4.028271 37,000 225 447 0
2019-02-15 21:05:35 GMT 49.468548 4.040519 37,000 225 446 0
2019-02-15 21:05:31 GMT 49.474228 4.048968 37,000 225 446 0
2019-02-15 21:05:28 GMT 49.477890 4.054389 37,000 225 446 0
2019-02-15 21:05:25 GMT 49.483494 4.062714 37,000 225 446 0
2019-02-15 21:05:20 GMT 49.491165 4.074121 37,000 225 446 0
2019-02-15 21:05:17 GMT 49.494152 4.078600 37,000 225 446 0
2019-02-15 21:05:13 GMT 49.500111 4.087434 37,000 225 446 0
2019-02-15 21:05:08 GMT 49.509384 4.101297 37,000 225 446 0
2019-02-15 21:05:04 GMT 49.515518 4.110477 37,000 225 446 0
2019-02-15 21:05:00 GMT 49.521561 4.119512 37,000 225 446 0
2019-02-15 21:04:57 GMT 49.524506 4.123956 37,000 225 446 0
2019-02-15 21:04:53 GMT 49.530323 4.132641 37,000 225 446 0
2019-02-15 21:04:50 GMT 49.535446 4.140287 37,000 225 445 0
2019-02-15 21:04:44 GMT 49.542706 4.151050 37,000 225 446 0
2019-02-15 21:04:41 GMT 49.547287 4.157892 37,000 225 445 0
2019-02-15 21:04:38 GMT 49.557724 4.173504 37,000 225 445 0
2019-02-15 21:04:30 GMT 49.564774 4.184009 37,000 225 445 0
2019-02-15 21:04:27 GMT 49.568218 4.189057 37,000 225 445 0
2019-02-15 21:04:24 GMT 49.573711 4.197297 37,000 225 445 0
2019-02-15 21:04:21 GMT 49.578506 4.204511 37,000 225 445 0
2019-02-15 21:04:18 GMT 49.582230 4.210065 37,000 225 445 0
2019-02-15 21:04:14 GMT 49.588886 4.219938 37,000 225 444 0
2019-02-15 21:04:10 GMT 49.593063 4.226195 37,000 225 444 0
2019-02-15 21:04:06 GMT 49.600159 4.236820 37,000 225 441 -64
2019-02-15 21:04:03 GMT 49.608994 4.250047 37,000 225 444 0
2019-02-15 21:04:00 GMT 49.608994 4.250047 37,000 225 444 0
2019-02-15 21:03:57 GMT 49.612816 4.255792 37,000 225 444 0
2019-02-15 21:03:54 GMT 49.616592 4.261467 37,000 225 444 0
2019-02-15 21:03:48 GMT 49.626686 4.276651 37,000 225 444 0
2019-02-15 21:03:44 GMT 49.631901 4.284445 37,000 225 444 0
2019-02-15 21:03:38 GMT 49.642044 4.299702 37,000 225 443 0
2019-02-15 21:03:32 GMT 49.649124 4.310352 37,000 225 443 0
2019-02-15 21:03:29 GMT 49.654861 4.318928 37,000 225 442 0
2019-02-15 21:03:26 GMT 49.659348 4.325650 37,000 225 441 -64
2019-02-15 21:03:23 GMT 49.662506 4.330348 37,000 225 442 -64
2019-02-15 21:03:20 GMT 49.667095 4.337298 37,000 225 442 -64
2019-02-15 21:03:17 GMT 49.671284 4.343608 37,000 225 442 0
2019-02-15 21:03:14 GMT 49.677242 4.352516 37,000 225 441 0
2019-02-15 21:03:07 GMT 49.685902 4.365581 37,000 225 441 0
2019-02-15 21:03:04 GMT 49.690277 4.372187 37,000 225 441 0
2019-02-15 21:03:01 GMT 49.694839 4.379017 37,000 225 441 0
2019-02-15 21:02:58 GMT 49.698990 4.385352 37,000 225 433 0
2019-02-15 21:02:55 GMT 49.707783 4.398540 37,000 225 441 0
2019-02-15 21:02:52 GMT 49.707783 4.398540 37,000 225 440 0
2019-02-15 21:02:48 GMT 49.719700 4.416652 37,000 225 439 0
2019-02-15 21:02:44 GMT 49.719700 4.416652 37,000 225 439 0
2019-02-15 21:02:40 GMT 49.725750 4.425709 37,000 225 436 0
2019-02-15 21:02:37 GMT 49.730080 4.432315 37,000 225 437 0
2019-02-15 21:02:34 GMT 49.735294 4.440110 37,000 225 437 0
2019-02-15 21:02:31 GMT 49.738815 4.445415 37,000 225 437 0
2019-02-15 21:02:25 GMT 49.747467 4.458498 37,000 225 436 0
2019-02-15 21:02:22 GMT 49.752983 4.466833 37,000 225 434 0
2019-02-15 21:02:16 GMT 49.760155 4.477671 37,000 225 434 0
2019-02-15 21:02:13 GMT 49.768719 4.490662 37,000 225 434 0
2019-02-15 21:02:10 GMT 49.775330 4.500683 37,000 225 434 0
2019-02-15 21:02:06 GMT 49.775330 4.500683 37,000 225 434 0
2019-02-15 21:02:03 GMT 49.778091 4.504900 37,000 225 432 0
2019-02-15 21:02:00 GMT 49.783337 4.512783 37,000 225 433 0
2019-02-15 21:01:57 GMT 49.787064 4.518489 37,000 225 432 0
2019-02-15 21:01:52 GMT 49.794250 4.529331 37,000 225 432 0
2019-02-15 21:01:49 GMT 49.800419 4.538690 37,000 225 432 0
2019-02-15 21:01:46 GMT 49.802582 4.541979 37,000 225 433 0
2019-02-15 21:01:43 GMT 49.807114 4.548846 37,000 225 433 0
2019-02-15 21:01:40 GMT 49.812469 4.556941 37,000 225 433 0
2019-02-15 21:01:36 GMT 49.817368 4.564386 37,000 225 432 0
2019-02-15 21:01:32 GMT 49.822533 4.572168 37,000 225 432 0
2019-02-15 21:01:29 GMT 49.826534 4.578255 37,000 225 432 0
2019-02-15 21:01:26 GMT 49.831741 4.586214 37,000 225 432 0
2019-02-15 21:01:21 GMT 49.838268 4.596145 37,000 225 433 0
2019-02-15 21:01:18 GMT 49.844376 4.605368 37,000 225 432 0
2019-02-15 21:01:15 GMT 49.846600 4.608839 37,000 225 432 0
2019-02-15 21:01:11 GMT 49.852478 4.617727 37,000 225 432 0
2019-02-15 21:01:08 GMT 49.858292 4.626545 37,000 225 432 0
2019-02-15 21:01:01 GMT 49.867641 4.640907 37,000 225 432 0
2019-02-15 21:00:57 GMT 49.873787 4.650186 37,000 225 432 0
2019-02-15 21:00:54 GMT 49.878159 4.656902 37,000 225 432 0
2019-02-15 21:00:48 GMT 49.885098 4.667482 37,000 225 432 0
2019-02-15 21:00:45 GMT 49.889988 4.674980 37,000 225 432 0
2019-02-15 21:00:42 GMT 49.893997 4.681115 37,000 225 432 0
2019-02-15 21:00:39 GMT 49.897808 4.686931 37,000 225 432 0
2019-02-15 21:00:36 GMT 49.902878 4.694704 37,000 225 432 0
2019-02-15 21:00:33 GMT 49.907070 4.701035 37,000 225 432 0
2019-02-15 21:00:28 GMT 49.913681 4.711183 37,000 225 432 0
2019-02-15 21:00:25 GMT 49.919495 4.720073 37,000 225 432 0
2019-02-15 21:00:22 GMT 49.922249 4.724270 37,000 225 432 0
2019-02-15 21:00:18 GMT 49.929558 4.735479 37,000 225 432 0
2019-02-15 21:00:13 GMT 49.934536 4.743124 37,000 225 432 0
2019-02-15 21:00:09 GMT 49.946686 4.761608 37,000 225 432 0
2019-02-15 21:00:05 GMT 49.946686 4.761608 37,000 225 432 0
2019-02-15 21:00:01 GMT 49.952644 4.770813 37,000 225 432 -64
2019-02-15 20:59:58 GMT 49.957993 4.778980 37,000 225 432 0
2019-02-15 20:59:52 GMT 49.965775 4.790979 37,000 225 432 0
2019-02-15 20:59:48 GMT 49.970757 4.798576 37,000 225 432 0
2019-02-15 20:59:43 GMT 49.977505 4.808968 37,000 225 432 0
2019-02-15 20:59:40 GMT 49.982254 4.816276 37,000 225 432 0
2019-02-15 20:59:37 GMT 49.985603 4.821439 37,000 225 432 0
2019-02-15 20:59:34 GMT 49.991005 4.829753 37,000 225 432 0
2019-02-15 20:59:31 GMT 49.995255 4.836225 37,000 225 432 0
2019-02-15 20:59:28 GMT 49.999573 4.842818 37,000 225 432 0
2019-02-15 20:59:25 GMT 50.003860 4.849452 37,000 225 432 0
2019-02-15 20:59:22 GMT 50.007111 4.854511 37,000 225 432 0
2019-02-15 20:59:19 GMT 50.011860 4.861747 37,000 225 432 0
2019-02-15 20:59:12 GMT 50.021824 4.877039 37,000 225 431 0
2019-02-15 20:59:08 GMT 50.028618 4.887431 37,000 225 432 0
2019-02-15 20:59:02 GMT 50.037231 4.900697 37,000 225 431 0
2019-02-15 20:58:59 GMT 50.041626 4.907419 37,000 225 432 64
2019-02-15 20:58:53 GMT 50.049316 4.919273 37,000 225 432 0
2019-02-15 20:58:50 GMT 50.053104 4.925067 37,000 225 432 0
2019-02-15 20:58:47 GMT 50.056644 4.930560 37,000 225 432 0
2019-02-15 20:58:41 GMT 50.065201 4.943631 37,000 225 431 -64
2019-02-15 20:58:37 GMT 50.071884 4.953894 37,000 225 431 0
2019-02-15 20:58:34 GMT 50.080353 4.966977 37,000 225 431 0
2019-02-15 20:58:31 GMT 50.080353 4.966977 37,000 225 432 0
2019-02-15 20:58:27 GMT 50.089233 4.980637 37,000 225 431 0
2019-02-15 20:58:20 GMT 50.095051 4.989575 37,000 225 431 0
2019-02-15 20:58:16 GMT 50.102032 5.000264 37,000 225 431 0
2019-02-15 20:58:13 GMT 50.105755 5.005980 37,000 225 431 64
2019-02-15 20:58:10 GMT 50.110039 5.012512 37,000 225 431 64
2019-02-15 20:58:07 GMT 50.113018 5.017189 37,000 225 431 64
2019-02-15 20:58:03 GMT 50.119907 5.027730 37,000 225 431 0
2019-02-15 20:58:00 GMT 50.124935 5.035524 37,000 225 430 -128
2019-02-15 20:57:57 GMT 50.127960 5.040123 37,000 225 430 -128
2019-02-15 20:57:54 GMT 50.132523 5.047179 37,000 225 429 320
2019-02-15 20:57:50 GMT 50.139088 5.057274 36,925 225 428 640
2019-02-15 20:57:47 GMT 50.142517 5.062529 36,950 225 427 640
2019-02-15 20:57:44 GMT 50.146866 5.069251 36,900 225 427 768
2019-02-15 20:57:41 GMT 50.151749 5.076797 36,875 225 427 832
2019-02-15 20:57:38 GMT 50.159340 5.088823 36,750 228 426 832
2019-02-15 20:57:35 GMT 50.159340 5.088823 35,975 232 423 960
2019-02-15 20:57:27 GMT 50.170258 5.107992 36,550 232 425 960
2019-02-15 20:57:24 GMT 50.173164 5.113468 36,550 232 425 960
2019-02-15 20:57:21 GMT 50.176666 5.120279 36,600 232 425 960
2019-02-15 20:57:16 GMT 50.186417 5.139000 36,075 232 423 1344
2019-02-15 20:57:13 GMT 50.186417 5.139000 36,425 232 423 960
2019-02-15 20:57:09 GMT 50.191635 5.149119 36,400 232 424 896
2019-02-15 20:57:06 GMT 50.195572 5.156635 36,350 232 423 896
2019-02-15 20:57:03 GMT 50.199512 5.164242 36,300 232 423 896
2019-02-15 20:57:00 GMT 50.204178 5.173332 36,250 232 423 960
2019-02-15 20:56:57 GMT 50.206741 5.178174 36,025 232 423 960
2019-02-15 20:56:53 GMT 50.210678 5.185764 36,175 232 423 960
2019-02-15 20:56:50 GMT 50.214874 5.194009 36,150 232 423 960
2019-02-15 20:56:47 GMT 50.218693 5.201284 36,050 232 422 960
2019-02-15 20:56:44 GMT 50.222557 5.208781 36,025 232 422 1024
2019-02-15 20:56:41 GMT 50.225582 5.214646 35,900 232 422 1088
2019-02-15 20:56:38 GMT 50.231262 5.225632 35,900 232 422 1088
2019-02-15 20:56:35 GMT 50.234798 5.232387 35,850 232 423 1152
2019-02-15 20:56:32 GMT 50.237312 5.237287 35,800 232 422 1152
2019-02-15 20:56:29 GMT 50.244202 5.250574 35,675 232 422 1152
2019-02-15 20:56:26 GMT 50.244202 5.250574 35,650 232 425 1664
2019-02-15 20:56:23 GMT 50.248489 5.258837 35,500 232 422 1344
2019-02-15 20:56:20 GMT 50.251923 5.265487 35,525 232 422 1216
2019-02-15 20:56:16 GMT 50.256546 5.274522 35,375 232 422 1344
2019-02-15 20:56:13 GMT 50.260345 5.281822 35,375 232 423 1280
2019-02-15 20:56:10 GMT 50.264126 5.289175 35,325 232 423 1280
2019-02-15 20:56:07 GMT 50.267899 5.296524 35,250 232 423 1344
2019-02-15 20:56:04 GMT 50.270599 5.301698 35,225 232 423 1280
2019-02-15 20:56:01 GMT 50.275486 5.311147 35,150 232 423 1280
2019-02-15 20:55:57 GMT 50.281445 5.322802 35,050 232 423 1344
2019-02-15 20:55:54 GMT 50.283371 5.326490 34,975 232 423 1344
2019-02-15 20:55:51 GMT 50.288010 5.335495 34,925 232 423 1344
2019-02-15 20:55:48 GMT 50.290695 5.340729 34,875 232 423 1408
2019-02-15 20:55:45 GMT 50.295868 5.350775 34,775 232 424 1216
2019-02-15 20:55:42 GMT 50.302780 5.364219 34,550 232 424 896
2019-02-15 20:55:39 GMT 50.302780 5.364219 34,675 232 424 1024
2019-02-15 20:55:35 GMT 50.307980 5.374393 34,600 232 424 896
2019-02-15 20:55:32 GMT 50.314362 5.386842 34,550 232 424 896
2019-02-15 20:55:29 GMT 50.317566 5.393058 34,500 232 424 896
2019-02-15 20:55:26 GMT 50.317566 5.393058 34,450 232 424 896
2019-02-15 20:55:23 GMT 50.322086 5.401933 34,400 232 424 896
2019-02-15 20:55:20 GMT 50.326218 5.409972 34,400 232 424 896
2019-02-15 20:55:16 GMT 50.329952 5.417225 33,800 232 424 1664
2019-02-15 20:55:12 GMT 50.335724 5.428508 34,275 232 424 896
2019-02-15 20:55:09 GMT 50.338211 5.433317 34,225 232 424 896
2019-02-15 20:55:06 GMT 50.345875 5.448254 34,100 232 424 1152
2019-02-15 20:55:03 GMT 50.345875 5.448254 34,050 232 424 1600
2019-02-15 20:55:00 GMT 50.349503 5.455380 34,050 232 424 1472
2019-02-15 20:54:56 GMT 50.354485 5.465104 33,875 232 425 1600
2019-02-15 20:54:53 GMT 50.357620 5.471191 33,875 232 425 1664
2019-02-15 20:54:50 GMT 50.362747 5.481166 33,800 232 425 1664
2019-02-15 20:54:47 GMT 50.366310 5.488116 33,700 232 425 1664
2019-02-15 20:54:44 GMT 50.370026 5.495332 33,600 232 426 1664
2019-02-15 20:54:41 GMT 50.372955 5.501115 32,975 232 426 1664
2019-02-15 20:54:38 GMT 50.376553 5.508159 33,450 232 426 1664
2019-02-15 20:54:35 GMT 50.380188 5.515354 33,375 232 427 1728
2019-02-15 20:54:32 GMT 50.384418 5.523525 33,200 232 427 1792
2019-02-15 20:54:29 GMT 50.391266 5.537037 33,125 232 427 1792
2019-02-15 20:54:26 GMT 50.395172 5.544607 33,075 232 428 1792
2019-02-15 20:54:23 GMT 50.395172 5.544607 33,000 232 429 1792
2019-02-15 20:54:20 GMT 50.400238 5.554601 32,900 232 428 1728
2019-02-15 20:54:16 GMT 50.403122 5.560238 32,900 232 427 1664
2019-02-15 20:54:13 GMT 50.407104 5.568045 32,750 232 429 1728
2019-02-15 20:54:10 GMT 50.410355 5.574405 32,725 232 429 1728
2019-02-15 20:54:07 GMT 50.415283 5.584024 32,550 232 429 1792
2019-02-15 20:54:04 GMT 50.419464 5.592330 32,425 232 431 1792
2019-02-15 20:54:01 GMT 50.422623 5.598474 31,750 232 431 1728
2019-02-15 20:53:58 GMT 50.426826 5.606739 32,275 232 431 1792
2019-02-15 20:53:55 GMT 50.429062 5.611119 32,100 232 432 1728
2019-02-15 20:53:52 GMT 50.437534 5.627747 32,050 232 431 1792
2019-02-15 20:53:49 GMT 50.441620 5.635769 31,800 232 432 1728
2019-02-15 20:53:45 GMT 50.441620 5.635769 31,875 232 432 1728
2019-02-15 20:53:42 GMT 50.445961 5.644226 31,850 232 432 1664
2019-02-15 20:53:39 GMT 50.449997 5.652177 31,750 232 432 1664
2019-02-15 20:53:36 GMT 50.454525 5.661151 31,600 232 433 1792
2019-02-15 20:53:30 GMT 50.460766 5.673325 31,425 232 433 1728
2019-02-15 20:53:27 GMT 50.464394 5.680525 31,100 232 433 1792
2019-02-15 20:53:24 GMT 50.468079 5.687738 30,625 232 434 1792
2019-02-15 20:53:21 GMT 50.476410 5.704073 31,050 232 433 1792
2019-02-15 20:53:17 GMT 50.476410 5.704073 31,050 232 433 1792
2019-02-15 20:53:14 GMT 50.480873 5.712891 30,625 232 434 1792
2019-02-15 20:53:11 GMT 50.485947 5.722912 30,850 232 434 1792
2019-02-15 20:53:08 GMT 50.487900 5.726768 30,825 232 434 1728
2019-02-15 20:53:05 GMT 50.492699 5.736199 30,700 232 434 1792
2019-02-15 20:53:02 GMT 50.500259 5.751198 30,475 232 434 1792
2019-02-15 20:52:58 GMT 50.500259 5.751198 30,525 232 434 1664
2019-02-15 20:52:55 GMT 50.504292 5.759137 30,375 232 434 1280
2019-02-15 20:52:52 GMT 50.508850 5.768193 30,375 232 434 1280
2019-02-15 20:52:49 GMT 50.512810 5.775988 30,350 232 434 1280
2019-02-15 20:52:46 GMT 50.515091 5.780516 30,275 232 432 1216
2019-02-15 20:52:43 GMT 50.520771 5.791725 30,175 232 432 1216
2019-02-15 20:52:39 GMT 50.523750 5.797664 30,150 232 432 1216
2019-02-15 20:52:36 GMT 50.528450 5.806943 30,050 232 429 1280
2019-02-15 20:52:33 GMT 50.532990 5.815960 29,950 232 430 1280
2019-02-15 20:52:27 GMT 50.544434 5.838655 29,775 232 423 1280
2019-02-15 20:52:23 GMT 50.544434 5.838655 29,750 232 428 1280
2019-02-15 20:52:20 GMT 50.548561 5.846805 29,700 232 427 1344
2019-02-15 20:52:17 GMT 50.552811 5.855279 29,600 232 426 1408
2019-02-15 20:52:12 GMT 50.557297 5.864169 29,525 232 425 1344
2019-02-15 20:52:09 GMT 50.562103 5.873710 29,425 232 425 1280
2019-02-15 20:52:05 GMT 50.566158 5.881843 29,350 232 424 1216
2019-02-15 20:52:00 GMT 50.571793 5.893052 29,225 232 422 1408
2019-02-15 20:51:57 GMT 50.576431 5.902260 29,175 232 422 1408
2019-02-15 20:51:51 GMT 50.584167 5.917656 29,025 232 420 1408
2019-02-15 20:51:48 GMT 50.586411 5.922065 28,700 232 417 1472
2019-02-15 20:51:45 GMT 50.590027 5.929292 28,750 232 419 1472
2019-02-15 20:51:42 GMT 50.593872 5.936954 27,600 232 419 1536
2019-02-15 20:51:39 GMT 50.598606 5.946424 28,725 232 418 1472
2019-02-15 20:51:36 GMT 50.604282 5.957708 28,625 232 417 1472
2019-02-15 20:51:30 GMT 50.609207 5.967528 28,300 232 417 1536
2019-02-15 20:51:26 GMT 50.612896 5.974855 28,425 232 417 1536
2019-02-15 20:51:23 GMT 50.617832 5.984580 28,375 232 416 1472
2019-02-15 20:51:19 GMT 50.621384 5.991596 28,250 232 414 1536
2019-02-15 20:51:16 GMT 50.624535 5.997793 27,500 244 411 1792
2019-02-15 20:51:13 GMT 50.628399 6.005661 28,125 234 414 1600
2019-02-15 20:51:08 GMT 50.635056 6.020359 27,825 239 413 1664
2019-02-15 20:51:05 GMT 50.637131 6.025206 27,875 241 412 1664
2019-02-15 20:51:02 GMT 50.640224 6.032905 27,800 241 412 1664
2019-02-15 20:50:57 GMT 50.649254 6.058292 27,550 245 411 1856
2019-02-15 20:50:53 GMT 50.649254 6.058292 27,550 244 411 1792
2019-02-15 20:50:50 GMT 50.653442 6.072099 27,225 245 411 1856
2019-02-15 20:50:47 GMT 50.653442 6.072099 27,350 247 411 1856
2019-02-15 20:50:44 GMT 50.655762 6.080571 27,250 250 411 1728
2019-02-15 20:50:41 GMT 50.658005 6.089692 26,825 254 408 1792
2019-02-15 20:50:38 GMT 50.659634 6.096892 26,900 254 407 1792
2019-02-15 20:50:34 GMT 50.662663 6.112036 26,950 254 410 1792
2019-02-15 20:50:31 GMT 50.663818 6.118156 26,900 254 410 1792
2019-02-15 20:50:28 GMT 50.665466 6.126902 26,800 254 408 1792
2019-02-15 20:50:25 GMT 50.667038 6.135196 26,725 254 407 1792
2019-02-15 20:50:22 GMT 50.668625 6.143743 26,625 254 407 1792
2019-02-15 20:50:19 GMT 50.670437 6.153160 26,425 254 406 1728
2019-02-15 20:50:16 GMT 50.671783 6.160509 26,375 254 406 1728
2019-02-15 20:50:13 GMT 50.673660 6.170456 26,325 254 406 1792
2019-02-15 20:50:10 GMT 50.675034 6.177731 26,250 254 405 1856
2019-02-15 20:50:07 GMT 50.676624 6.186142 26,200 254 405 1920
2019-02-15 20:50:04 GMT 50.678741 6.197403 26,050 254 404 1920
2019-02-15 20:50:01 GMT 50.679977 6.203861 26,000 254 404 1856
2019-02-15 20:49:58 GMT 50.681049 6.209564 25,650 254 401 2112
2019-02-15 20:49:55 GMT 50.685333 6.232224 25,775 254 401 1856
2019-02-15 20:49:51 GMT 50.685333 6.232224 25,725 254 401 1856
2019-02-15 20:49:48 GMT 50.686981 6.240828 25,650 254 401 2048
2019-02-15 20:49:44 GMT 50.688858 6.250850 25,450 254 401 1984
2019-02-15 20:49:41 GMT 50.690498 6.259689 25,350 254 398 1728
2019-02-15 20:49:38 GMT 50.692429 6.269779 25,000 254 398 1728
2019-02-15 20:49:34 GMT 50.694271 6.279678 25,125 254 393 1664
2019-02-15 20:49:31 GMT 50.695496 6.286332 25,000 254 398 1728
2019-02-15 20:49:28 GMT 50.697601 6.297616 24,950 254 397 1600
2019-02-15 20:49:24 GMT 50.699844 6.309567 24,850 254 396 1536
2019-02-15 20:49:21 GMT 50.700974 6.315689 24,750 254 394 1600
2019-02-15 20:49:17 GMT 50.703022 6.326523 24,675 254 393 1664
2019-02-15 20:49:14 GMT 50.704510 6.334457 24,600 254 392 1728
2019-02-15 20:49:11 GMT 50.705658 6.340670 24,550 254 391 1728
2019-02-15 20:49:08 GMT 50.707535 6.350692 24,450 254 389 1472
2019-02-15 20:49:04 GMT 50.710003 6.363983 24,300 254 387 1344
2019-02-15 20:49:01 GMT 50.711655 6.372738 23,525 254 387 1344
2019-02-15 20:48:58 GMT 50.712193 6.375809 24,125 254 385 1536
2019-02-15 20:48:55 GMT 50.714054 6.385727 24,075 254 364 1920
2019-02-15 20:48:52 GMT 50.715729 6.394653 23,975 254 383 1728
2019-02-15 20:48:49 GMT 50.717422 6.403990 23,700 254 378 1536
2019-02-15 20:48:46 GMT 50.718704 6.410894 23,825 254 379 1536
2019-02-15 20:48:43 GMT 50.720032 6.417871 23,750 254 379 1536
2019-02-15 20:48:39 GMT 50.722321 6.430194 23,650 254 378 1536
2019-02-15 20:48:36 GMT 50.723969 6.439102 23,575 254 376 1664
2019-02-15 20:48:33 GMT 50.726528 6.452789 23,475 254 374 1728
2019-02-15 20:48:30 GMT 50.726528 6.452789 23,425 254 374 1792
2019-02-15 20:48:27 GMT 50.727768 6.459516 23,350 254 373 1792
2019-02-15 20:48:23 GMT 50.729462 6.468646 23,225 254 371 1664
2019-02-15 20:48:20 GMT 50.731606 6.479797 23,125 254 369 1536
2019-02-15 20:48:17 GMT 50.733047 6.487656 22,625 254 361 1920
2019-02-15 20:48:14 GMT 50.734451 6.495147 22,975 254 366 1664
2019-02-15 20:48:11 GMT 50.735779 6.502125 22,725 254 364 1920
2019-02-15 20:48:08 GMT 50.737286 6.510162 22,875 254 364 1920
2019-02-15 20:48:05 GMT 50.738480 6.516377 22,500 254 361 1920
2019-02-15 20:48:02 GMT 50.740170 6.525574 22,600 254 361 1920
2019-02-15 20:47:58 GMT 50.741940 6.534958 22,550 254 361 1920
2019-02-15 20:47:55 GMT 50.743195 6.541616 22,400 254 360 1920
2019-02-15 20:47:52 GMT 50.744659 6.549336 22,200 254 357 2112
2019-02-15 20:47:49 GMT 50.745941 6.556015 22,200 254 358 2048
2019-02-15 20:47:46 GMT 50.747852 6.566162 22,050 254 355 2112
2019-02-15 20:47:43 GMT 50.749008 6.572274 22,000 254 354 2048
2019-02-15 20:47:40 GMT 50.750198 6.578509 21,825 254 354 1984
2019-02-15 20:47:37 GMT 50.752182 6.588974 21,725 254 352 2048
2019-02-15 20:47:34 GMT 50.752945 6.592985 20,700 254 351 2368
2019-02-15 20:47:30 GMT 50.755020 6.603928 21,450 254 351 2368
2019-02-15 20:47:27 GMT 50.758232 6.620789 21,300 254 351 2816
2019-02-15 20:47:23 GMT 50.758232 6.620789 21,200 254 351 2944
2019-02-15 20:47:19 GMT 50.760178 6.631140 20,850 256 351 3328
2019-02-15 20:47:15 GMT 50.761917 6.641235 20,750 257 353 3456
2019-02-15 20:47:12 GMT 50.764297 6.657641 20,450 262 358 3520
2019-02-15 20:47:08 GMT 50.764297 6.657641 20,275 261 358 3584
2019-02-15 20:47:02 GMT 50.766102 6.673889 19,875 263 359 3456
2019-02-15 20:46:59 GMT 50.766705 6.680832 19,650 264 360 3392
2019-02-15 20:46:56 GMT 50.767227 6.688447 19,475 265 360 3392
2019-02-15 20:46:53 GMT 50.767681 6.698837 19,450 269 363 3520
2019-02-15 20:46:49 GMT 50.767868 6.709455 19,300 270 363 3520
2019-02-15 20:46:46 GMT 50.767822 6.716156 19,150 273 365 2880
2019-02-15 20:46:43 GMT 50.767685 6.722816 18,950 273 365 2880
2019-02-15 20:46:40 GMT 50.767365 6.734471 18,750 273 365 2624
2019-02-15 20:46:33 GMT 50.766983 6.751328 18,375 293 350 3264
2019-02-15 20:46:30 GMT 50.766861 6.756889 18,300 273 362 2816
2019-02-15 20:46:27 GMT 50.766632 6.766093 18,250 273 361 2880
2019-02-15 20:46:24 GMT 50.766472 6.773376 17,950 273 361 2816
2019-02-15 20:46:21 GMT 50.766220 6.781459 17,950 273 360 2688
2019-02-15 20:46:18 GMT 50.766037 6.790738 17,600 273 357 2752
2019-02-15 20:46:15 GMT 50.765854 6.797345 17,675 273 357 2752
2019-02-15 20:46:12 GMT 50.765633 6.806412 17,525 273 357 2752
2019-02-15 20:46:09 GMT 50.765442 6.813379 17,200 273 357 2816
2019-02-15 20:46:06 GMT 50.765305 6.818798 17,300 275 354 3008
2019-02-15 20:46:03 GMT 50.765076 6.827409 17,150 273 355 2944
2019-02-15 20:46:00 GMT 50.764843 6.835480 17,025 279 354 3008
2019-02-15 20:45:57 GMT 50.764343 6.845744 16,825 276 354 3008
2019-02-15 20:45:54 GMT 50.763912 6.851273 16,675 280 355 3072
2019-02-15 20:45:50 GMT 50.762749 6.861191 15,650 293 350 3264
2019-02-15 20:45:47 GMT 50.761047 6.870686 16,325 290 354 2880
2019-02-15 20:45:44 GMT 50.759445 6.877813 16,150 292 354 2880
2019-02-15 20:45:41 GMT 50.757614 6.884939 15,950 293 352 2880
2019-02-15 20:45:37 GMT 50.752972 6.902695 15,750 293 351 2944
2019-02-15 20:45:31 GMT 50.752167 6.905724 15,575 293 351 3200
2019-02-15 20:45:28 GMT 50.749329 6.916487 15,325 293 350 3200
2019-02-15 20:45:25 GMT 50.748047 6.921312 15,100 293 350 3136
2019-02-15 20:45:22 GMT 50.745571 6.930847 15,050 293 350 3136
2019-02-15 20:45:18 GMT 50.743469 6.938757 14,825 293 348 3008
2019-02-15 20:45:14 GMT 50.741455 6.946477 14,650 293 348 3072
2019-02-15 20:45:11 GMT 50.738682 6.957169 14,375 293 347 3200
2019-02-15 20:45:08 GMT 50.737656 6.961027 13,300 294 346 3264
2019-02-15 20:45:05 GMT 50.735779 6.968004 13,500 293 346 3328
2019-02-15 20:45:02 GMT 50.733837 6.975479 13,975 293 346 3328
2019-02-15 20:44:58 GMT 50.731323 6.985092 13,800 293 345 3328
2019-02-15 20:44:55 GMT 50.729324 6.992649 13,425 293 345 3392
2019-02-15 20:44:52 GMT 50.727879 6.998291 13,450 293 345 3456
2019-02-15 20:44:49 GMT 50.726395 7.003858 12,350 293 341 3200
2019-02-15 20:44:46 GMT 50.723969 7.013063 12,975 293 343 3264
2019-02-15 20:44:43 GMT 50.722107 7.020187 12,875 293 343 3264
2019-02-15 20:44:40 GMT 50.720947 7.024643 12,800 293 342 3264
2019-02-15 20:44:37 GMT 50.718018 7.035852 12,650 293 338 3392
2019-02-15 20:44:33 GMT 50.716415 7.041791 12,425 293 338 3328
2019-02-15 20:44:30 GMT 50.714565 7.048874 12,225 293 339 3200
2019-02-15 20:44:27 GMT 50.712662 7.056192 12,075 293 338 3264
2019-02-15 20:44:23 GMT 50.710007 7.066213 11,975 293 338 3392
2019-02-15 20:44:20 GMT 50.708748 7.071075 11,650 293 322 1024
2019-02-15 20:44:16 GMT 50.706253 7.080317 11,350 293 336 3200
2019-02-15 20:44:13 GMT 50.704239 7.088112 10,975 293 320 1024
2019-02-15 20:44:10 GMT 50.702602 7.094269 11,175 293 322 1024
2019-02-15 20:44:07 GMT 50.700695 7.101669 10,925 293 318 1024
2019-02-15 20:44:03 GMT 50.697807 7.112579 10,975 293 326 1152
2019-02-15 20:43:59 GMT 50.696320 7.118378 10,900 293 318 1024
2019-02-15 20:43:56 GMT 50.694454 7.125397 10,850 293 308 896
2019-02-15 20:43:53 GMT 50.692871 7.131653 10,775 293 301 960
2019-02-15 20:43:50 GMT 50.690918 7.139183 10,750 293 301 1024
2019-02-15 20:43:44 GMT 50.688358 7.149200 10,650 293 292 2048
2019-02-15 20:43:41 GMT 50.684914 7.162323 10,400 274 281 3392
2019-02-15 20:43:35 GMT 50.683472 7.168121 10,200 288 285 3584
2019-02-15 20:43:31 GMT 50.682072 7.175293 9,975 283 284 3584
2019-02-15 20:43:28 GMT 50.681190 7.181778 9,725 267 279 3264
2019-02-15 20:43:24 GMT 50.680618 7.190700 9,525 272 281 3328
2019-02-15 20:43:21 GMT 50.680676 7.196808 9,375 267 279 3264
2019-02-15 20:43:17 GMT 50.681095 7.203064 9,200 261 275 3328
2019-02-15 20:43:13 GMT 50.682121 7.210922 8,800 250 272 3264
2019-02-15 20:43:10 GMT 50.683228 7.216607 8,825 247 271 3264
2019-02-15 20:43:05 GMT 50.685890 7.226105 8,075 226 265 3008
2019-02-15 20:42:59 GMT 50.689407 7.234794 8,075 234 267 3264
2019-02-15 20:42:56 GMT 50.692177 7.240067 8,025 229 266 3136
2019-02-15 20:42:52 GMT 50.696823 7.246968 7,800 219 263 2944
2019-02-15 20:42:49 GMT 50.698692 7.249222 7,775 218 262 3008
2019-02-15 20:42:46 GMT 50.701576 7.252197 7,550 195 263 3136
2019-02-15 20:42:41 GMT 50.708817 7.257286 7,175 197 262 3136
2019-02-15 20:42:32 GMT 50.719757 7.259291 6,725 176 263 2944
2019-02-15 20:42:29 GMT 50.722805 7.258911 6,475 173 263 3264
2019-02-15 20:42:26 GMT 50.725182 7.258377 5,900 171 264 3520
2019-02-15 20:42:21 GMT 50.731094 7.257080 6,075 171 264 3392
2019-02-15 20:42:18 GMT 50.734726 7.256173 6,075 171 264 3392
2019-02-15 20:42:11 GMT 50.744522 7.253872 5,575 171 263 3264
2019-02-15 20:42:08 GMT 50.748001 7.253055 5,375 171 261 3008
2019-02-15 20:42:01 GMT 50.756561 7.251051 5,050 171 261 3008
2019-02-15 20:41:56 GMT 50.760544 7.250086 4,825 171 259 3136
2019-02-15 20:41:47 GMT 50.772709 7.247238 4,325 171 256 3008
2019-02-15 20:41:36 GMT 50.785698 7.244339 3,900 169 246 1664
2019-02-15 20:41:29 GMT 50.792404 7.242143 3,625 161 240 1984
2019-02-15 20:41:25 GMT 50.797073 7.239768 3,575 157 237 1984
2019-02-15 20:41:18 GMT 50.804901 7.233532 3,325 146 230 1920
2019-02-15 20:41:15 GMT 50.806740 7.231598 3,225 142 228 1920
2019-02-15 20:41:05 GMT 50.814972 7.220764 2,875 138 212 2688
2019-02-15 20:40:58 GMT 50.819778 7.214083 2,725 138 212 2688
2019-02-15 20:40:54 GMT 50.822708 7.210007 2,550 138 209 2432
2019-02-15 20:40:44 GMT 50.830482 7.199326 2,175 139 200 1856
2019-02-15 20:40:33 GMT 50.837311 7.190255 1,950 139 188 1152
2019-02-15 20:40:25 GMT 50.843170 7.182535 1,750 139 165 640
2019-02-15 20:40:10 GMT 50.850906 7.171771 1,550 137 153 1472
2019-02-15 20:40:02 GMT 50.855072 7.165461 1,225 136 145 2368
2019-02-15 20:39:52 GMT 50.860199 7.157890 600 139 150 4352
2019-02-15 20:39:41 GMT 50.865814 7.150269 -50 138 164 2240

Making use of Plane Finder data

You are free to use the raw flight data, aircraft information and images provided in this report for your own purposes provided the data is correctly attributed to Plane Finder. We ask that you please credit Plane Finder and link to planefinder.net in close proximity to the content.

Optionally one of the following logos (no smaller then 150x24px) can be used and must link to planefinder.net

Embedding the Plane Finder map

You are welcome to embed the Plane Finder playback map on your website to offer visitors a more interactive experience. We suggest using the following HTML code:

<iframe src="//planefinder.net/data/report/FR2508-EI-FTM-7700-squawk-2019-02-15/map" width="800" height="600" seamless="seamless"></iframe>

Where our data comes from

Plane Finder has a global network of data feeds and antenna radars that receive data broadcast directly from aircraft. The primary technologies used are ADS-B and MLAT. We also show feeds from the FAA and a FLARM glider feed.

Click here to find out more about the Plane Finder network.

How we collect our data